<?xml version="1.0" encoding="UTF-8" standalone="no" ?>
<gpx xmlns="http://www.topografix.com/GPX/1/1" xmlns:xsi="http://www.w3.org/2001/XMLSchema-instance" xsi:schemaLocation="http://www.topografix.com/GPX/1/1 http://www.topografix.com/GPX/1/1/gpx.xsd" version="1.1" creator="VisuGPX - https://www.visugpx.com">
  <metadata>
    <name>Rocher de Saint Supière depuis Gigors</name>
    <desc><![CDATA[Rando CAF Valence du 17 février 2022 organisée par Chantal.]]></desc>
  </metadata>
  <trk>
    <name><![CDATA[2022-02-17 15:22:21]]></name>
    <trkseg>
      <trkpt lat="44.79043" lon="5.10616">
        <ele>555.3</ele>
        <time>2022-02-17T08:58:15Z</time>
      </trkpt>
      <trkpt lat="44.79047" lon="5.10615">
        <ele>555.3</ele>
        <time>2022-02-17T08:58:34Z</time>
      </trkpt>
      <trkpt lat="44.79054" lon="5.10616">
        <ele>555.3</ele>
        <time>2022-02-17T08:58:50Z</time>
      </trkpt>
      <trkpt lat="44.79067" lon="5.10624">
        <ele>555.3</ele>
        <time>2022-02-17T08:59:07Z</time>
      </trkpt>
      <trkpt lat="44.7908" lon="5.10619">
        <ele>555.3</ele>
        <time>2022-02-17T08:59:22Z</time>
      </trkpt>
      <trkpt lat="44.79089" lon="5.10614">
        <ele>555.3</ele>
        <time>2022-02-17T08:59:33Z</time>
      </trkpt>
      <trkpt lat="44.79109" lon="5.10607">
        <ele>555.3</ele>
        <time>2022-02-17T08:59:51Z</time>
      </trkpt>
      <trkpt lat="44.79125" lon="5.10606">
        <ele>555.78</ele>
        <time>2022-02-17T09:00:08Z</time>
      </trkpt>
      <trkpt lat="44.79135" lon="5.10613">
        <ele>557.22</ele>
        <time>2022-02-17T09:00:23Z</time>
      </trkpt>
      <trkpt lat="44.79145" lon="5.10619">
        <ele>558.18</ele>
        <time>2022-02-17T09:00:37Z</time>
      </trkpt>
      <trkpt lat="44.79149" lon="5.1062">
        <ele>559.14</ele>
        <time>2022-02-17T09:00:51Z</time>
      </trkpt>
      <trkpt lat="44.7916" lon="5.10626">
        <ele>560.59</ele>
        <time>2022-02-17T09:01:03Z</time>
      </trkpt>
      <trkpt lat="44.79168" lon="5.10619">
        <ele>562.03</ele>
        <time>2022-02-17T09:01:16Z</time>
      </trkpt>
      <trkpt lat="44.79172" lon="5.10612">
        <ele>563.95</ele>
        <time>2022-02-17T09:01:32Z</time>
      </trkpt>
      <trkpt lat="44.79177" lon="5.10606">
        <ele>565.87</ele>
        <time>2022-02-17T09:01:50Z</time>
      </trkpt>
      <trkpt lat="44.79183" lon="5.10604">
        <ele>568.28</ele>
        <time>2022-02-17T09:02:08Z</time>
      </trkpt>
      <trkpt lat="44.79191" lon="5.10601">
        <ele>571.16</ele>
        <time>2022-02-17T09:02:25Z</time>
      </trkpt>
      <trkpt lat="44.79197" lon="5.10601">
        <ele>573.08</ele>
        <time>2022-02-17T09:02:43Z</time>
      </trkpt>
      <trkpt lat="44.79202" lon="5.106">
        <ele>574.04</ele>
        <time>2022-02-17T09:03:06Z</time>
      </trkpt>
      <trkpt lat="44.79205" lon="5.106">
        <ele>575.49</ele>
        <time>2022-02-17T09:03:14Z</time>
      </trkpt>
      <trkpt lat="44.79212" lon="5.10598">
        <ele>578.37</ele>
        <time>2022-02-17T09:03:29Z</time>
      </trkpt>
      <trkpt lat="44.79219" lon="5.10597">
        <ele>581.25</ele>
        <time>2022-02-17T09:03:48Z</time>
      </trkpt>
      <trkpt lat="44.79227" lon="5.10594">
        <ele>584.14</ele>
        <time>2022-02-17T09:04:08Z</time>
      </trkpt>
      <trkpt lat="44.79233" lon="5.10598">
        <ele>587.5</ele>
        <time>2022-02-17T09:04:26Z</time>
      </trkpt>
      <trkpt lat="44.79235" lon="5.10597">
        <ele>588.46</ele>
        <time>2022-02-17T09:04:44Z</time>
      </trkpt>
      <trkpt lat="44.79243" lon="5.10592">
        <ele>590.87</ele>
        <time>2022-02-17T09:05:01Z</time>
      </trkpt>
      <trkpt lat="44.79244" lon="5.10587">
        <ele>592.31</ele>
        <time>2022-02-17T09:07:30Z</time>
      </trkpt>
      <trkpt lat="44.79247" lon="5.10585">
        <ele>592.31</ele>
        <time>2022-02-17T09:07:46Z</time>
      </trkpt>
      <trkpt lat="44.79252" lon="5.10594">
        <ele>594.23</ele>
        <time>2022-02-17T09:08:01Z</time>
      </trkpt>
      <trkpt lat="44.7926" lon="5.10597">
        <ele>597.12</ele>
        <time>2022-02-17T09:08:20Z</time>
      </trkpt>
      <trkpt lat="44.79269" lon="5.10597">
        <ele>598.56</ele>
        <time>2022-02-17T09:08:35Z</time>
      </trkpt>
      <trkpt lat="44.79279" lon="5.10596">
        <ele>600.96</ele>
        <time>2022-02-17T09:08:52Z</time>
      </trkpt>
      <trkpt lat="44.79285" lon="5.10598">
        <ele>602.4</ele>
        <time>2022-02-17T09:09:06Z</time>
      </trkpt>
      <trkpt lat="44.79292" lon="5.10605">
        <ele>604.81</ele>
        <time>2022-02-17T09:09:24Z</time>
      </trkpt>
      <trkpt lat="44.79298" lon="5.10607">
        <ele>607.21</ele>
        <time>2022-02-17T09:09:40Z</time>
      </trkpt>
      <trkpt lat="44.79306" lon="5.10612">
        <ele>610.09</ele>
        <time>2022-02-17T09:10:01Z</time>
      </trkpt>
      <trkpt lat="44.79313" lon="5.10618">
        <ele>612.98</ele>
        <time>2022-02-17T09:10:18Z</time>
      </trkpt>
      <trkpt lat="44.79321" lon="5.10623">
        <ele>614.9</ele>
        <time>2022-02-17T09:10:34Z</time>
      </trkpt>
      <trkpt lat="44.7933" lon="5.10628">
        <ele>616.82</ele>
        <time>2022-02-17T09:10:53Z</time>
      </trkpt>
      <trkpt lat="44.7934" lon="5.10635">
        <ele>619.71</ele>
        <time>2022-02-17T09:11:12Z</time>
      </trkpt>
      <trkpt lat="44.79346" lon="5.1064">
        <ele>622.11</ele>
        <time>2022-02-17T09:11:28Z</time>
      </trkpt>
      <trkpt lat="44.79352" lon="5.10645">
        <ele>623.55</ele>
        <time>2022-02-17T09:11:43Z</time>
      </trkpt>
      <trkpt lat="44.79359" lon="5.10649">
        <ele>625.96</ele>
        <time>2022-02-17T09:11:59Z</time>
      </trkpt>
      <trkpt lat="44.79368" lon="5.10653">
        <ele>628.36</ele>
        <time>2022-02-17T09:12:15Z</time>
      </trkpt>
      <trkpt lat="44.79377" lon="5.10656">
        <ele>629.8</ele>
        <time>2022-02-17T09:12:34Z</time>
      </trkpt>
      <trkpt lat="44.79385" lon="5.10655">
        <ele>631.72</ele>
        <time>2022-02-17T09:12:48Z</time>
      </trkpt>
      <trkpt lat="44.79396" lon="5.10657">
        <ele>634.61</ele>
        <time>2022-02-17T09:13:06Z</time>
      </trkpt>
      <trkpt lat="44.79404" lon="5.10655">
        <ele>637.01</ele>
        <time>2022-02-17T09:13:23Z</time>
      </trkpt>
      <trkpt lat="44.79412" lon="5.10658">
        <ele>639.89</ele>
        <time>2022-02-17T09:13:40Z</time>
      </trkpt>
      <trkpt lat="44.79421" lon="5.1066">
        <ele>642.78</ele>
        <time>2022-02-17T09:13:58Z</time>
      </trkpt>
      <trkpt lat="44.79417" lon="5.1065">
        <ele>645.18</ele>
        <time>2022-02-17T09:14:16Z</time>
      </trkpt>
      <trkpt lat="44.79421" lon="5.10646">
        <ele>648.07</ele>
        <time>2022-02-17T09:14:34Z</time>
      </trkpt>
      <trkpt lat="44.7943" lon="5.10652">
        <ele>650.47</ele>
        <time>2022-02-17T09:14:50Z</time>
      </trkpt>
      <trkpt lat="44.79436" lon="5.10651">
        <ele>652.39</ele>
        <time>2022-02-17T09:15:04Z</time>
      </trkpt>
      <trkpt lat="44.79442" lon="5.10651">
        <ele>654.8</ele>
        <time>2022-02-17T09:15:20Z</time>
      </trkpt>
      <trkpt lat="44.79443" lon="5.10642">
        <ele>657.2</ele>
        <time>2022-02-17T09:15:36Z</time>
      </trkpt>
      <trkpt lat="44.79439" lon="5.10628">
        <ele>659.6</ele>
        <time>2022-02-17T09:15:50Z</time>
      </trkpt>
      <trkpt lat="44.79436" lon="5.10621">
        <ele>661.04</ele>
        <time>2022-02-17T09:16:05Z</time>
      </trkpt>
      <trkpt lat="44.79432" lon="5.1061">
        <ele>663.45</ele>
        <time>2022-02-17T09:16:23Z</time>
      </trkpt>
      <trkpt lat="44.79426" lon="5.10602">
        <ele>665.85</ele>
        <time>2022-02-17T09:16:40Z</time>
      </trkpt>
      <trkpt lat="44.7942" lon="5.10592">
        <ele>668.25</ele>
        <time>2022-02-17T09:16:59Z</time>
      </trkpt>
      <trkpt lat="44.79415" lon="5.10581">
        <ele>670.18</ele>
        <time>2022-02-17T09:17:20Z</time>
      </trkpt>
      <trkpt lat="44.79414" lon="5.1058">
        <ele>671.14</ele>
        <time>2022-02-17T09:19:55Z</time>
      </trkpt>
      <trkpt lat="44.7942" lon="5.1058">
        <ele>674.02</ele>
        <time>2022-02-17T09:20:10Z</time>
      </trkpt>
      <trkpt lat="44.7942" lon="5.10573">
        <ele>677.39</ele>
        <time>2022-02-17T09:20:27Z</time>
      </trkpt>
      <trkpt lat="44.79418" lon="5.10561">
        <ele>679.31</ele>
        <time>2022-02-17T09:20:43Z</time>
      </trkpt>
      <trkpt lat="44.79416" lon="5.10548">
        <ele>682.19</ele>
        <time>2022-02-17T09:20:58Z</time>
      </trkpt>
      <trkpt lat="44.79413" lon="5.10537">
        <ele>684.12</ele>
        <time>2022-02-17T09:21:13Z</time>
      </trkpt>
      <trkpt lat="44.79412" lon="5.10527">
        <ele>686.04</ele>
        <time>2022-02-17T09:21:29Z</time>
      </trkpt>
      <trkpt lat="44.79416" lon="5.10519">
        <ele>687.96</ele>
        <time>2022-02-17T09:21:48Z</time>
      </trkpt>
      <trkpt lat="44.79421" lon="5.10512">
        <ele>690.84</ele>
        <time>2022-02-17T09:22:07Z</time>
      </trkpt>
      <trkpt lat="44.79426" lon="5.10504">
        <ele>693.25</ele>
        <time>2022-02-17T09:22:27Z</time>
      </trkpt>
      <trkpt lat="44.7943" lon="5.10503">
        <ele>694.21</ele>
        <time>2022-02-17T09:22:44Z</time>
      </trkpt>
      <trkpt lat="44.79436" lon="5.10499">
        <ele>696.13</ele>
        <time>2022-02-17T09:23:00Z</time>
      </trkpt>
      <trkpt lat="44.79438" lon="5.10491">
        <ele>698.05</ele>
        <time>2022-02-17T09:23:17Z</time>
      </trkpt>
      <trkpt lat="44.79446" lon="5.10486">
        <ele>698.05</ele>
        <time>2022-02-17T09:23:32Z</time>
      </trkpt>
      <trkpt lat="44.79454" lon="5.10482">
        <ele>699.02</ele>
        <time>2022-02-17T09:23:48Z</time>
      </trkpt>
      <trkpt lat="44.79468" lon="5.10472">
        <ele>699.5</ele>
        <time>2022-02-17T09:24:05Z</time>
      </trkpt>
      <trkpt lat="44.79478" lon="5.10475">
        <ele>702.38</ele>
        <time>2022-02-17T09:24:22Z</time>
      </trkpt>
      <trkpt lat="44.79487" lon="5.10475">
        <ele>703.82</ele>
        <time>2022-02-17T09:24:38Z</time>
      </trkpt>
      <trkpt lat="44.79499" lon="5.10476">
        <ele>705.26</ele>
        <time>2022-02-17T09:24:51Z</time>
      </trkpt>
      <trkpt lat="44.79502" lon="5.10478">
        <ele>707.67</ele>
        <time>2022-02-17T09:25:07Z</time>
      </trkpt>
      <trkpt lat="44.79501" lon="5.1048">
        <ele>708.63</ele>
        <time>2022-02-17T09:25:11Z</time>
      </trkpt>
      <trkpt lat="44.79496" lon="5.10485">
        <ele>711.03</ele>
        <time>2022-02-17T09:25:29Z</time>
      </trkpt>
      <trkpt lat="44.7949" lon="5.10489">
        <ele>713.44</ele>
        <time>2022-02-17T09:25:42Z</time>
      </trkpt>
      <trkpt lat="44.79487" lon="5.10495">
        <ele>715.84</ele>
        <time>2022-02-17T09:25:59Z</time>
      </trkpt>
      <trkpt lat="44.79481" lon="5.10503">
        <ele>717.76</ele>
        <time>2022-02-17T09:26:15Z</time>
      </trkpt>
      <trkpt lat="44.79475" lon="5.10503">
        <ele>720.16</ele>
        <time>2022-02-17T09:26:30Z</time>
      </trkpt>
      <trkpt lat="44.79473" lon="5.10509">
        <ele>722.09</ele>
        <time>2022-02-17T09:26:43Z</time>
      </trkpt>
      <trkpt lat="44.79472" lon="5.10515">
        <ele>724.49</ele>
        <time>2022-02-17T09:27:02Z</time>
      </trkpt>
      <trkpt lat="44.79475" lon="5.10522">
        <ele>726.41</ele>
        <time>2022-02-17T09:27:18Z</time>
      </trkpt>
      <trkpt lat="44.79473" lon="5.10531">
        <ele>726.89</ele>
        <time>2022-02-17T09:27:35Z</time>
      </trkpt>
      <trkpt lat="44.79474" lon="5.10547">
        <ele>727.86</ele>
        <time>2022-02-17T09:27:49Z</time>
      </trkpt>
      <trkpt lat="44.79479" lon="5.10553">
        <ele>728.34</ele>
        <time>2022-02-17T09:28:04Z</time>
      </trkpt>
      <trkpt lat="44.79479" lon="5.10547">
        <ele>729.78</ele>
        <time>2022-02-17T09:28:21Z</time>
      </trkpt>
      <trkpt lat="44.79483" lon="5.10539">
        <ele>735.55</ele>
        <time>2022-02-17T09:35:27Z</time>
      </trkpt>
      <trkpt lat="44.79483" lon="5.10537">
        <ele>736.03</ele>
        <time>2022-02-17T09:35:28Z</time>
      </trkpt>
      <trkpt lat="44.79488" lon="5.10526">
        <ele>737.47</ele>
        <time>2022-02-17T09:35:45Z</time>
      </trkpt>
      <trkpt lat="44.79494" lon="5.10523">
        <ele>739.39</ele>
        <time>2022-02-17T09:35:58Z</time>
      </trkpt>
      <trkpt lat="44.79504" lon="5.1052">
        <ele>739.39</ele>
        <time>2022-02-17T09:36:12Z</time>
      </trkpt>
      <trkpt lat="44.79507" lon="5.10502">
        <ele>739.39</ele>
        <time>2022-02-17T09:37:03Z</time>
      </trkpt>
      <trkpt lat="44.79509" lon="5.10501">
        <ele>740.35</ele>
        <time>2022-02-17T09:37:19Z</time>
      </trkpt>
      <trkpt lat="44.79508" lon="5.10502">
        <ele>739.39</ele>
        <time>2022-02-17T09:37:35Z</time>
      </trkpt>
      <trkpt lat="44.79508" lon="5.10503">
        <ele>738.91</ele>
        <time>2022-02-17T09:37:51Z</time>
      </trkpt>
      <trkpt lat="44.79508" lon="5.10504">
        <ele>740.35</ele>
        <time>2022-02-17T09:37:58Z</time>
      </trkpt>
      <trkpt lat="44.79508" lon="5.1052">
        <ele>740.35</ele>
        <time>2022-02-17T09:38:16Z</time>
      </trkpt>
      <trkpt lat="44.79505" lon="5.10523">
        <ele>740.35</ele>
        <time>2022-02-17T09:38:48Z</time>
      </trkpt>
      <trkpt lat="44.79494" lon="5.10523">
        <ele>738.43</ele>
        <time>2022-02-17T09:39:04Z</time>
      </trkpt>
      <trkpt lat="44.79488" lon="5.10526">
        <ele>737.95</ele>
        <time>2022-02-17T09:39:21Z</time>
      </trkpt>
      <trkpt lat="44.79483" lon="5.10535">
        <ele>735.55</ele>
        <time>2022-02-17T09:39:49Z</time>
      </trkpt>
      <trkpt lat="44.79484" lon="5.10542">
        <ele>733.62</ele>
        <time>2022-02-17T09:40:06Z</time>
      </trkpt>
      <trkpt lat="44.79479" lon="5.10547">
        <ele>730.26</ele>
        <time>2022-02-17T09:40:21Z</time>
      </trkpt>
      <trkpt lat="44.79483" lon="5.1056">
        <ele>728.82</ele>
        <time>2022-02-17T09:40:34Z</time>
      </trkpt>
      <trkpt lat="44.79492" lon="5.10568">
        <ele>730.74</ele>
        <time>2022-02-17T09:40:48Z</time>
      </trkpt>
      <trkpt lat="44.79494" lon="5.10572">
        <ele>730.74</ele>
        <time>2022-02-17T09:40:53Z</time>
      </trkpt>
      <trkpt lat="44.79497" lon="5.10576">
        <ele>729.78</ele>
        <time>2022-02-17T09:40:57Z</time>
      </trkpt>
      <trkpt lat="44.79509" lon="5.10576">
        <ele>728.82</ele>
        <time>2022-02-17T09:41:12Z</time>
      </trkpt>
      <trkpt lat="44.79518" lon="5.10578">
        <ele>728.82</ele>
        <time>2022-02-17T09:41:25Z</time>
      </trkpt>
      <trkpt lat="44.79536" lon="5.10579">
        <ele>728.82</ele>
        <time>2022-02-17T09:41:43Z</time>
      </trkpt>
      <trkpt lat="44.79538" lon="5.10578">
        <ele>729.78</ele>
        <time>2022-02-17T09:41:48Z</time>
      </trkpt>
      <trkpt lat="44.7955" lon="5.10573">
        <ele>731.22</ele>
        <time>2022-02-17T09:42:03Z</time>
      </trkpt>
      <trkpt lat="44.79564" lon="5.10572">
        <ele>731.22</ele>
        <time>2022-02-17T09:42:16Z</time>
      </trkpt>
      <trkpt lat="44.79578" lon="5.10575">
        <ele>733.62</ele>
        <time>2022-02-17T09:42:34Z</time>
      </trkpt>
      <trkpt lat="44.79591" lon="5.1058">
        <ele>735.55</ele>
        <time>2022-02-17T09:42:48Z</time>
      </trkpt>
      <trkpt lat="44.79602" lon="5.10585">
        <ele>736.03</ele>
        <time>2022-02-17T09:43:03Z</time>
      </trkpt>
      <trkpt lat="44.79613" lon="5.10591">
        <ele>736.51</ele>
        <time>2022-02-17T09:43:15Z</time>
      </trkpt>
      <trkpt lat="44.7963" lon="5.10599">
        <ele>737.47</ele>
        <time>2022-02-17T09:43:30Z</time>
      </trkpt>
      <trkpt lat="44.79642" lon="5.10608">
        <ele>737.95</ele>
        <time>2022-02-17T09:43:44Z</time>
      </trkpt>
      <trkpt lat="44.79656" lon="5.10617">
        <ele>737.95</ele>
        <time>2022-02-17T09:44:00Z</time>
      </trkpt>
      <trkpt lat="44.7967" lon="5.10628">
        <ele>737.95</ele>
        <time>2022-02-17T09:44:15Z</time>
      </trkpt>
      <trkpt lat="44.79681" lon="5.10637">
        <ele>736.51</ele>
        <time>2022-02-17T09:44:27Z</time>
      </trkpt>
      <trkpt lat="44.79698" lon="5.10649">
        <ele>736.03</ele>
        <time>2022-02-17T09:44:43Z</time>
      </trkpt>
      <trkpt lat="44.7971" lon="5.10659">
        <ele>736.99</ele>
        <time>2022-02-17T09:44:57Z</time>
      </trkpt>
      <trkpt lat="44.79713" lon="5.10661">
        <ele>736.99</ele>
        <time>2022-02-17T09:45:02Z</time>
      </trkpt>
      <trkpt lat="44.7973" lon="5.10665">
        <ele>736.99</ele>
        <time>2022-02-17T09:45:19Z</time>
      </trkpt>
      <trkpt lat="44.79748" lon="5.10672">
        <ele>736.99</ele>
        <time>2022-02-17T09:45:32Z</time>
      </trkpt>
      <trkpt lat="44.79759" lon="5.10678">
        <ele>736.51</ele>
        <time>2022-02-17T09:45:45Z</time>
      </trkpt>
      <trkpt lat="44.79775" lon="5.10686">
        <ele>736.99</ele>
        <time>2022-02-17T09:46:01Z</time>
      </trkpt>
      <trkpt lat="44.79788" lon="5.1069">
        <ele>736.99</ele>
        <time>2022-02-17T09:46:12Z</time>
      </trkpt>
      <trkpt lat="44.79805" lon="5.10693">
        <ele>735.55</ele>
        <time>2022-02-17T09:46:27Z</time>
      </trkpt>
      <trkpt lat="44.79825" lon="5.10692">
        <ele>735.55</ele>
        <time>2022-02-17T09:46:44Z</time>
      </trkpt>
      <trkpt lat="44.79835" lon="5.10693">
        <ele>735.07</ele>
        <time>2022-02-17T09:46:56Z</time>
      </trkpt>
      <trkpt lat="44.79855" lon="5.10696">
        <ele>735.07</ele>
        <time>2022-02-17T09:47:10Z</time>
      </trkpt>
      <trkpt lat="44.79868" lon="5.10702">
        <ele>735.07</ele>
        <time>2022-02-17T09:47:23Z</time>
      </trkpt>
      <trkpt lat="44.79887" lon="5.10708">
        <ele>735.07</ele>
        <time>2022-02-17T09:47:38Z</time>
      </trkpt>
      <trkpt lat="44.799" lon="5.10708">
        <ele>734.58</ele>
        <time>2022-02-17T09:47:52Z</time>
      </trkpt>
      <trkpt lat="44.79915" lon="5.10709">
        <ele>733.62</ele>
        <time>2022-02-17T09:48:07Z</time>
      </trkpt>
      <trkpt lat="44.79934" lon="5.10712">
        <ele>733.14</ele>
        <time>2022-02-17T09:48:19Z</time>
      </trkpt>
      <trkpt lat="44.79956" lon="5.10711">
        <ele>732.66</ele>
        <time>2022-02-17T09:48:36Z</time>
      </trkpt>
      <trkpt lat="44.79965" lon="5.10711">
        <ele>732.18</ele>
        <time>2022-02-17T09:48:46Z</time>
      </trkpt>
      <trkpt lat="44.79979" lon="5.10711">
        <ele>730.26</ele>
        <time>2022-02-17T09:49:01Z</time>
      </trkpt>
      <trkpt lat="44.79982" lon="5.10711">
        <ele>730.26</ele>
        <time>2022-02-17T09:49:04Z</time>
      </trkpt>
      <trkpt lat="44.79987" lon="5.10711">
        <ele>730.26</ele>
        <time>2022-02-17T09:49:07Z</time>
      </trkpt>
      <trkpt lat="44.80001" lon="5.1071">
        <ele>730.26</ele>
        <time>2022-02-17T09:49:21Z</time>
      </trkpt>
      <trkpt lat="44.80018" lon="5.10706">
        <ele>729.3</ele>
        <time>2022-02-17T09:49:37Z</time>
      </trkpt>
      <trkpt lat="44.80036" lon="5.107">
        <ele>728.34</ele>
        <time>2022-02-17T09:49:52Z</time>
      </trkpt>
      <trkpt lat="44.8006" lon="5.10696">
        <ele>727.86</ele>
        <time>2022-02-17T09:50:10Z</time>
      </trkpt>
      <trkpt lat="44.80073" lon="5.10694">
        <ele>727.86</ele>
        <time>2022-02-17T09:50:22Z</time>
      </trkpt>
      <trkpt lat="44.80088" lon="5.10688">
        <ele>727.37</ele>
        <time>2022-02-17T09:50:34Z</time>
      </trkpt>
      <trkpt lat="44.80098" lon="5.10683">
        <ele>726.89</ele>
        <time>2022-02-17T09:50:47Z</time>
      </trkpt>
      <trkpt lat="44.80116" lon="5.10682">
        <ele>726.41</ele>
        <time>2022-02-17T09:51:02Z</time>
      </trkpt>
      <trkpt lat="44.80137" lon="5.10685">
        <ele>725.45</ele>
        <time>2022-02-17T09:51:15Z</time>
      </trkpt>
      <trkpt lat="44.80155" lon="5.10688">
        <ele>725.45</ele>
        <time>2022-02-17T09:51:28Z</time>
      </trkpt>
      <trkpt lat="44.80174" lon="5.10691">
        <ele>725.45</ele>
        <time>2022-02-17T09:51:41Z</time>
      </trkpt>
      <trkpt lat="44.80188" lon="5.10694">
        <ele>725.45</ele>
        <time>2022-02-17T09:51:53Z</time>
      </trkpt>
      <trkpt lat="44.80202" lon="5.10696">
        <ele>724.97</ele>
        <time>2022-02-17T09:52:06Z</time>
      </trkpt>
      <trkpt lat="44.80219" lon="5.10699">
        <ele>724.97</ele>
        <time>2022-02-17T09:52:22Z</time>
      </trkpt>
      <trkpt lat="44.80232" lon="5.10701">
        <ele>725.45</ele>
        <time>2022-02-17T09:52:35Z</time>
      </trkpt>
      <trkpt lat="44.80246" lon="5.10708">
        <ele>724.97</ele>
        <time>2022-02-17T09:52:49Z</time>
      </trkpt>
      <trkpt lat="44.80262" lon="5.10716">
        <ele>724.49</ele>
        <time>2022-02-17T09:53:03Z</time>
      </trkpt>
      <trkpt lat="44.80277" lon="5.10722">
        <ele>724.01</ele>
        <time>2022-02-17T09:53:17Z</time>
      </trkpt>
      <trkpt lat="44.80293" lon="5.1073">
        <ele>722.57</ele>
        <time>2022-02-17T09:53:32Z</time>
      </trkpt>
      <trkpt lat="44.80307" lon="5.10737">
        <ele>723.05</ele>
        <time>2022-02-17T09:53:47Z</time>
      </trkpt>
      <trkpt lat="44.80322" lon="5.10749">
        <ele>722.57</ele>
        <time>2022-02-17T09:54:01Z</time>
      </trkpt>
      <trkpt lat="44.80337" lon="5.10769">
        <ele>722.09</ele>
        <time>2022-02-17T09:54:16Z</time>
      </trkpt>
      <trkpt lat="44.80351" lon="5.10781">
        <ele>722.09</ele>
        <time>2022-02-17T09:54:31Z</time>
      </trkpt>
      <trkpt lat="44.80361" lon="5.10791">
        <ele>722.09</ele>
        <time>2022-02-17T09:54:44Z</time>
      </trkpt>
      <trkpt lat="44.80365" lon="5.10793">
        <ele>722.09</ele>
        <time>2022-02-17T09:54:48Z</time>
      </trkpt>
      <trkpt lat="44.80382" lon="5.10801">
        <ele>721.61</ele>
        <time>2022-02-17T09:55:02Z</time>
      </trkpt>
      <trkpt lat="44.80394" lon="5.10802">
        <ele>723.53</ele>
        <time>2022-02-17T09:55:14Z</time>
      </trkpt>
      <trkpt lat="44.8041" lon="5.10801">
        <ele>723.53</ele>
        <time>2022-02-17T09:55:28Z</time>
      </trkpt>
      <trkpt lat="44.80422" lon="5.10801">
        <ele>723.53</ele>
        <time>2022-02-17T09:55:37Z</time>
      </trkpt>
      <trkpt lat="44.80442" lon="5.10803">
        <ele>723.53</ele>
        <time>2022-02-17T09:55:53Z</time>
      </trkpt>
      <trkpt lat="44.80463" lon="5.10802">
        <ele>724.97</ele>
        <time>2022-02-17T09:56:10Z</time>
      </trkpt>
      <trkpt lat="44.80476" lon="5.10802">
        <ele>724.97</ele>
        <time>2022-02-17T09:56:22Z</time>
      </trkpt>
      <trkpt lat="44.80491" lon="5.10799">
        <ele>725.45</ele>
        <time>2022-02-17T09:56:36Z</time>
      </trkpt>
      <trkpt lat="44.80502" lon="5.10802">
        <ele>725.93</ele>
        <time>2022-02-17T09:56:45Z</time>
      </trkpt>
      <trkpt lat="44.80524" lon="5.10804">
        <ele>727.37</ele>
        <time>2022-02-17T09:57:02Z</time>
      </trkpt>
      <trkpt lat="44.80542" lon="5.10808">
        <ele>728.34</ele>
        <time>2022-02-17T09:57:17Z</time>
      </trkpt>
      <trkpt lat="44.80555" lon="5.1081">
        <ele>729.3</ele>
        <time>2022-02-17T09:57:30Z</time>
      </trkpt>
      <trkpt lat="44.8057" lon="5.10813">
        <ele>730.74</ele>
        <time>2022-02-17T09:57:43Z</time>
      </trkpt>
      <trkpt lat="44.80585" lon="5.10815">
        <ele>732.18</ele>
        <time>2022-02-17T09:57:57Z</time>
      </trkpt>
      <trkpt lat="44.80602" lon="5.10817">
        <ele>734.1</ele>
        <time>2022-02-17T09:58:13Z</time>
      </trkpt>
      <trkpt lat="44.80621" lon="5.10818">
        <ele>734.1</ele>
        <time>2022-02-17T09:58:31Z</time>
      </trkpt>
      <trkpt lat="44.80643" lon="5.10821">
        <ele>736.51</ele>
        <time>2022-02-17T09:58:50Z</time>
      </trkpt>
      <trkpt lat="44.80656" lon="5.10825">
        <ele>736.99</ele>
        <time>2022-02-17T09:59:01Z</time>
      </trkpt>
      <trkpt lat="44.80671" lon="5.10825">
        <ele>737.95</ele>
        <time>2022-02-17T09:59:16Z</time>
      </trkpt>
      <trkpt lat="44.80683" lon="5.10825">
        <ele>738.43</ele>
        <time>2022-02-17T09:59:31Z</time>
      </trkpt>
      <trkpt lat="44.80692" lon="5.10825">
        <ele>738.91</ele>
        <time>2022-02-17T09:59:44Z</time>
      </trkpt>
      <trkpt lat="44.80707" lon="5.10824">
        <ele>739.87</ele>
        <time>2022-02-17T10:00:01Z</time>
      </trkpt>
      <trkpt lat="44.8071" lon="5.10823">
        <ele>739.87</ele>
        <time>2022-02-17T10:00:24Z</time>
      </trkpt>
      <trkpt lat="44.80711" lon="5.10822">
        <ele>739.87</ele>
        <time>2022-02-17T10:04:05Z</time>
      </trkpt>
      <trkpt lat="44.80722" lon="5.10813">
        <ele>738.91</ele>
        <time>2022-02-17T10:04:19Z</time>
      </trkpt>
      <trkpt lat="44.80725" lon="5.10813">
        <ele>740.35</ele>
        <time>2022-02-17T10:04:21Z</time>
      </trkpt>
      <trkpt lat="44.80745" lon="5.10803">
        <ele>740.35</ele>
        <time>2022-02-17T10:04:41Z</time>
      </trkpt>
      <trkpt lat="44.80761" lon="5.10789">
        <ele>739.39</ele>
        <time>2022-02-17T10:05:00Z</time>
      </trkpt>
      <trkpt lat="44.80772" lon="5.10773">
        <ele>738.43</ele>
        <time>2022-02-17T10:05:15Z</time>
      </trkpt>
      <trkpt lat="44.80784" lon="5.10754">
        <ele>736.99</ele>
        <time>2022-02-17T10:05:32Z</time>
      </trkpt>
      <trkpt lat="44.80792" lon="5.10735">
        <ele>736.03</ele>
        <time>2022-02-17T10:05:45Z</time>
      </trkpt>
      <trkpt lat="44.808" lon="5.10717">
        <ele>734.58</ele>
        <time>2022-02-17T10:05:56Z</time>
      </trkpt>
      <trkpt lat="44.8081" lon="5.10696">
        <ele>735.07</ele>
        <time>2022-02-17T10:06:10Z</time>
      </trkpt>
      <trkpt lat="44.80817" lon="5.10673">
        <ele>733.62</ele>
        <time>2022-02-17T10:06:25Z</time>
      </trkpt>
      <trkpt lat="44.80824" lon="5.10648">
        <ele>732.66</ele>
        <time>2022-02-17T10:06:40Z</time>
      </trkpt>
      <trkpt lat="44.8083" lon="5.10626">
        <ele>731.7</ele>
        <time>2022-02-17T10:06:56Z</time>
      </trkpt>
      <trkpt lat="44.80833" lon="5.10601">
        <ele>730.74</ele>
        <time>2022-02-17T10:07:11Z</time>
      </trkpt>
      <trkpt lat="44.80837" lon="5.10577">
        <ele>730.26</ele>
        <time>2022-02-17T10:07:25Z</time>
      </trkpt>
      <trkpt lat="44.80847" lon="5.10555">
        <ele>728.34</ele>
        <time>2022-02-17T10:07:42Z</time>
      </trkpt>
      <trkpt lat="44.80848" lon="5.10547">
        <ele>727.86</ele>
        <time>2022-02-17T10:07:47Z</time>
      </trkpt>
      <trkpt lat="44.80848" lon="5.10527">
        <ele>726.41</ele>
        <time>2022-02-17T10:08:02Z</time>
      </trkpt>
      <trkpt lat="44.80841" lon="5.10509">
        <ele>725.93</ele>
        <time>2022-02-17T10:08:19Z</time>
      </trkpt>
      <trkpt lat="44.80849" lon="5.10498">
        <ele>725.93</ele>
        <time>2022-02-17T10:08:36Z</time>
      </trkpt>
      <trkpt lat="44.80861" lon="5.10486">
        <ele>727.86</ele>
        <time>2022-02-17T10:08:53Z</time>
      </trkpt>
      <trkpt lat="44.80873" lon="5.10475">
        <ele>729.3</ele>
        <time>2022-02-17T10:09:09Z</time>
      </trkpt>
      <trkpt lat="44.80885" lon="5.1048">
        <ele>731.7</ele>
        <time>2022-02-17T10:09:25Z</time>
      </trkpt>
      <trkpt lat="44.80894" lon="5.10496">
        <ele>734.1</ele>
        <time>2022-02-17T10:09:42Z</time>
      </trkpt>
      <trkpt lat="44.80905" lon="5.10509">
        <ele>736.51</ele>
        <time>2022-02-17T10:09:58Z</time>
      </trkpt>
      <trkpt lat="44.80915" lon="5.10523">
        <ele>736.99</ele>
        <time>2022-02-17T10:10:13Z</time>
      </trkpt>
      <trkpt lat="44.80928" lon="5.10538">
        <ele>737.47</ele>
        <time>2022-02-17T10:10:29Z</time>
      </trkpt>
      <trkpt lat="44.80941" lon="5.10546">
        <ele>737.47</ele>
        <time>2022-02-17T10:10:45Z</time>
      </trkpt>
      <trkpt lat="44.80953" lon="5.10552">
        <ele>737.47</ele>
        <time>2022-02-17T10:11:00Z</time>
      </trkpt>
      <trkpt lat="44.80968" lon="5.10563">
        <ele>739.39</ele>
        <time>2022-02-17T10:11:14Z</time>
      </trkpt>
      <trkpt lat="44.80984" lon="5.10576">
        <ele>740.35</ele>
        <time>2022-02-17T10:11:28Z</time>
      </trkpt>
      <trkpt lat="44.80998" lon="5.10579">
        <ele>740.83</ele>
        <time>2022-02-17T10:11:43Z</time>
      </trkpt>
      <trkpt lat="44.81" lon="5.10579">
        <ele>740.83</ele>
        <time>2022-02-17T10:11:45Z</time>
      </trkpt>
      <trkpt lat="44.81005" lon="5.10579">
        <ele>739.39</ele>
        <time>2022-02-17T10:11:49Z</time>
      </trkpt>
      <trkpt lat="44.81014" lon="5.10577">
        <ele>738.91</ele>
        <time>2022-02-17T10:12:02Z</time>
      </trkpt>
      <trkpt lat="44.81027" lon="5.10576">
        <ele>738.91</ele>
        <time>2022-02-17T10:12:14Z</time>
      </trkpt>
      <trkpt lat="44.8104" lon="5.1058">
        <ele>738.91</ele>
        <time>2022-02-17T10:12:24Z</time>
      </trkpt>
      <trkpt lat="44.81048" lon="5.10581">
        <ele>738.91</ele>
        <time>2022-02-17T10:12:31Z</time>
      </trkpt>
      <trkpt lat="44.81059" lon="5.10585">
        <ele>740.35</ele>
        <time>2022-02-17T10:12:44Z</time>
      </trkpt>
      <trkpt lat="44.81073" lon="5.10588">
        <ele>741.79</ele>
        <time>2022-02-17T10:12:58Z</time>
      </trkpt>
      <trkpt lat="44.81085" lon="5.10588">
        <ele>742.28</ele>
        <time>2022-02-17T10:13:09Z</time>
      </trkpt>
      <trkpt lat="44.81095" lon="5.10587">
        <ele>743.24</ele>
        <time>2022-02-17T10:13:18Z</time>
      </trkpt>
      <trkpt lat="44.81119" lon="5.10588">
        <ele>743.72</ele>
        <time>2022-02-17T10:13:33Z</time>
      </trkpt>
      <trkpt lat="44.81135" lon="5.10587">
        <ele>744.68</ele>
        <time>2022-02-17T10:13:44Z</time>
      </trkpt>
      <trkpt lat="44.81154" lon="5.10587">
        <ele>745.16</ele>
        <time>2022-02-17T10:14:00Z</time>
      </trkpt>
      <trkpt lat="44.81156" lon="5.10587">
        <ele>745.16</ele>
        <time>2022-02-17T10:14:02Z</time>
      </trkpt>
      <trkpt lat="44.8116" lon="5.10587">
        <ele>745.64</ele>
        <time>2022-02-17T10:14:05Z</time>
      </trkpt>
      <trkpt lat="44.81184" lon="5.1059">
        <ele>746.6</ele>
        <time>2022-02-17T10:14:23Z</time>
      </trkpt>
      <trkpt lat="44.81205" lon="5.10589">
        <ele>747.56</ele>
        <time>2022-02-17T10:14:39Z</time>
      </trkpt>
      <trkpt lat="44.81224" lon="5.10588">
        <ele>748.52</ele>
        <time>2022-02-17T10:14:55Z</time>
      </trkpt>
      <trkpt lat="44.81245" lon="5.10582">
        <ele>749.97</ele>
        <time>2022-02-17T10:15:11Z</time>
      </trkpt>
      <trkpt lat="44.81247" lon="5.10581">
        <ele>749.97</ele>
        <time>2022-02-17T10:15:13Z</time>
      </trkpt>
      <trkpt lat="44.81257" lon="5.10574">
        <ele>749.97</ele>
        <time>2022-02-17T10:15:21Z</time>
      </trkpt>
      <trkpt lat="44.81273" lon="5.10558">
        <ele>750.93</ele>
        <time>2022-02-17T10:15:38Z</time>
      </trkpt>
      <trkpt lat="44.81274" lon="5.10557">
        <ele>750.93</ele>
        <time>2022-02-17T10:15:39Z</time>
      </trkpt>
      <trkpt lat="44.81294" lon="5.10537">
        <ele>751.41</ele>
        <time>2022-02-17T10:15:59Z</time>
      </trkpt>
      <trkpt lat="44.81315" lon="5.10522">
        <ele>751.89</ele>
        <time>2022-02-17T10:16:17Z</time>
      </trkpt>
      <trkpt lat="44.81334" lon="5.1051">
        <ele>752.85</ele>
        <time>2022-02-17T10:16:34Z</time>
      </trkpt>
      <trkpt lat="44.81356" lon="5.10492">
        <ele>752.85</ele>
        <time>2022-02-17T10:16:55Z</time>
      </trkpt>
      <trkpt lat="44.81374" lon="5.10476">
        <ele>753.81</ele>
        <time>2022-02-17T10:17:13Z</time>
      </trkpt>
      <trkpt lat="44.81392" lon="5.10459">
        <ele>753.81</ele>
        <time>2022-02-17T10:17:32Z</time>
      </trkpt>
      <trkpt lat="44.81392" lon="5.10458">
        <ele>753.81</ele>
        <time>2022-02-17T10:17:33Z</time>
      </trkpt>
      <trkpt lat="44.81399" lon="5.1045">
        <ele>755.25</ele>
        <time>2022-02-17T10:17:50Z</time>
      </trkpt>
      <trkpt lat="44.81411" lon="5.10435">
        <ele>755.25</ele>
        <time>2022-02-17T10:18:04Z</time>
      </trkpt>
      <trkpt lat="44.81417" lon="5.10428">
        <ele>755.25</ele>
        <time>2022-02-17T10:18:11Z</time>
      </trkpt>
      <trkpt lat="44.81421" lon="5.10427">
        <ele>755.25</ele>
        <time>2022-02-17T10:18:14Z</time>
      </trkpt>
      <trkpt lat="44.81439" lon="5.10408">
        <ele>756.21</ele>
        <time>2022-02-17T10:18:35Z</time>
      </trkpt>
      <trkpt lat="44.81445" lon="5.10395">
        <ele>757.18</ele>
        <time>2022-02-17T10:18:50Z</time>
      </trkpt>
      <trkpt lat="44.81443" lon="5.10394">
        <ele>757.18</ele>
        <time>2022-02-17T10:19:32Z</time>
      </trkpt>
      <trkpt lat="44.81437" lon="5.10389">
        <ele>758.14</ele>
        <time>2022-02-17T10:19:47Z</time>
      </trkpt>
      <trkpt lat="44.81431" lon="5.10388">
        <ele>758.62</ele>
        <time>2022-02-17T10:19:54Z</time>
      </trkpt>
      <trkpt lat="44.8142" lon="5.10379">
        <ele>759.58</ele>
        <time>2022-02-17T10:20:09Z</time>
      </trkpt>
      <trkpt lat="44.81411" lon="5.10368">
        <ele>762.94</ele>
        <time>2022-02-17T10:20:24Z</time>
      </trkpt>
      <trkpt lat="44.81402" lon="5.10356">
        <ele>764.87</ele>
        <time>2022-02-17T10:20:39Z</time>
      </trkpt>
      <trkpt lat="44.81405" lon="5.10342">
        <ele>766.79</ele>
        <time>2022-02-17T10:20:53Z</time>
      </trkpt>
      <trkpt lat="44.81409" lon="5.10329">
        <ele>769.19</ele>
        <time>2022-02-17T10:21:06Z</time>
      </trkpt>
      <trkpt lat="44.81413" lon="5.10317">
        <ele>770.15</ele>
        <time>2022-02-17T10:21:20Z</time>
      </trkpt>
      <trkpt lat="44.81415" lon="5.10308">
        <ele>772.08</ele>
        <time>2022-02-17T10:21:28Z</time>
      </trkpt>
      <trkpt lat="44.81416" lon="5.10293">
        <ele>774</ele>
        <time>2022-02-17T10:21:43Z</time>
      </trkpt>
      <trkpt lat="44.81416" lon="5.10277">
        <ele>775.92</ele>
        <time>2022-02-17T10:21:58Z</time>
      </trkpt>
      <trkpt lat="44.81417" lon="5.10262">
        <ele>777.36</ele>
        <time>2022-02-17T10:22:11Z</time>
      </trkpt>
      <trkpt lat="44.81416" lon="5.10248">
        <ele>779.29</ele>
        <time>2022-02-17T10:22:24Z</time>
      </trkpt>
      <trkpt lat="44.81415" lon="5.10238">
        <ele>781.69</ele>
        <time>2022-02-17T10:22:37Z</time>
      </trkpt>
      <trkpt lat="44.81419" lon="5.10223">
        <ele>784.09</ele>
        <time>2022-02-17T10:22:52Z</time>
      </trkpt>
      <trkpt lat="44.81421" lon="5.10211">
        <ele>786.02</ele>
        <time>2022-02-17T10:23:06Z</time>
      </trkpt>
      <trkpt lat="44.81421" lon="5.10198">
        <ele>789.38</ele>
        <time>2022-02-17T10:23:21Z</time>
      </trkpt>
      <trkpt lat="44.81416" lon="5.10185">
        <ele>792.26</ele>
        <time>2022-02-17T10:23:37Z</time>
      </trkpt>
      <trkpt lat="44.81409" lon="5.10177">
        <ele>795.15</ele>
        <time>2022-02-17T10:23:53Z</time>
      </trkpt>
      <trkpt lat="44.81397" lon="5.10165">
        <ele>797.07</ele>
        <time>2022-02-17T10:24:10Z</time>
      </trkpt>
      <trkpt lat="44.81385" lon="5.10155">
        <ele>797.55</ele>
        <time>2022-02-17T10:24:25Z</time>
      </trkpt>
      <trkpt lat="44.81378" lon="5.10143">
        <ele>796.11</ele>
        <time>2022-02-17T10:24:39Z</time>
      </trkpt>
      <trkpt lat="44.8137" lon="5.10133">
        <ele>795.63</ele>
        <time>2022-02-17T10:24:52Z</time>
      </trkpt>
      <trkpt lat="44.81361" lon="5.10123">
        <ele>795.15</ele>
        <time>2022-02-17T10:25:02Z</time>
      </trkpt>
      <trkpt lat="44.81355" lon="5.10114">
        <ele>794.67</ele>
        <time>2022-02-17T10:25:08Z</time>
      </trkpt>
      <trkpt lat="44.81353" lon="5.10111">
        <ele>794.19</ele>
        <time>2022-02-17T10:25:10Z</time>
      </trkpt>
      <trkpt lat="44.81343" lon="5.10086">
        <ele>794.19</ele>
        <time>2022-02-17T10:25:28Z</time>
      </trkpt>
      <trkpt lat="44.81342" lon="5.10083">
        <ele>795.15</ele>
        <time>2022-02-17T10:25:30Z</time>
      </trkpt>
      <trkpt lat="44.81337" lon="5.10064">
        <ele>797.07</ele>
        <time>2022-02-17T10:25:43Z</time>
      </trkpt>
      <trkpt lat="44.81331" lon="5.10045">
        <ele>799.95</ele>
        <time>2022-02-17T10:25:58Z</time>
      </trkpt>
      <trkpt lat="44.81326" lon="5.10029">
        <ele>801.88</ele>
        <time>2022-02-17T10:26:12Z</time>
      </trkpt>
      <trkpt lat="44.81321" lon="5.10017">
        <ele>803.32</ele>
        <time>2022-02-17T10:26:24Z</time>
      </trkpt>
      <trkpt lat="44.81315" lon="5.10001">
        <ele>805.72</ele>
        <time>2022-02-17T10:26:39Z</time>
      </trkpt>
      <trkpt lat="44.8131" lon="5.09988">
        <ele>808.13</ele>
        <time>2022-02-17T10:26:53Z</time>
      </trkpt>
      <trkpt lat="44.81302" lon="5.09974">
        <ele>811.49</ele>
        <time>2022-02-17T10:27:09Z</time>
      </trkpt>
      <trkpt lat="44.81296" lon="5.0996">
        <ele>813.41</ele>
        <time>2022-02-17T10:27:24Z</time>
      </trkpt>
      <trkpt lat="44.81287" lon="5.09948">
        <ele>814.85</ele>
        <time>2022-02-17T10:27:39Z</time>
      </trkpt>
      <trkpt lat="44.81276" lon="5.09935">
        <ele>816.3</ele>
        <time>2022-02-17T10:27:55Z</time>
      </trkpt>
      <trkpt lat="44.81269" lon="5.09924">
        <ele>817.74</ele>
        <time>2022-02-17T10:28:09Z</time>
      </trkpt>
      <trkpt lat="44.81261" lon="5.0991">
        <ele>820.14</ele>
        <time>2022-02-17T10:28:25Z</time>
      </trkpt>
      <trkpt lat="44.81257" lon="5.09896">
        <ele>823.03</ele>
        <time>2022-02-17T10:28:40Z</time>
      </trkpt>
      <trkpt lat="44.81253" lon="5.09883">
        <ele>825.91</ele>
        <time>2022-02-17T10:28:56Z</time>
      </trkpt>
      <trkpt lat="44.81246" lon="5.0987">
        <ele>827.83</ele>
        <time>2022-02-17T10:29:11Z</time>
      </trkpt>
      <trkpt lat="44.8124" lon="5.09857">
        <ele>829.76</ele>
        <time>2022-02-17T10:29:26Z</time>
      </trkpt>
      <trkpt lat="44.81234" lon="5.09847">
        <ele>831.2</ele>
        <time>2022-02-17T10:29:38Z</time>
      </trkpt>
      <trkpt lat="44.81228" lon="5.09835">
        <ele>832.64</ele>
        <time>2022-02-17T10:29:51Z</time>
      </trkpt>
      <trkpt lat="44.81221" lon="5.09819">
        <ele>835.52</ele>
        <time>2022-02-17T10:30:07Z</time>
      </trkpt>
      <trkpt lat="44.81213" lon="5.09807">
        <ele>837.45</ele>
        <time>2022-02-17T10:30:22Z</time>
      </trkpt>
      <trkpt lat="44.81206" lon="5.09793">
        <ele>838.89</ele>
        <time>2022-02-17T10:30:35Z</time>
      </trkpt>
      <trkpt lat="44.81203" lon="5.09776">
        <ele>840.81</ele>
        <time>2022-02-17T10:30:53Z</time>
      </trkpt>
      <trkpt lat="44.812" lon="5.09763">
        <ele>842.73</ele>
        <time>2022-02-17T10:31:07Z</time>
      </trkpt>
      <trkpt lat="44.81198" lon="5.09758">
        <ele>842.73</ele>
        <time>2022-02-17T10:31:24Z</time>
      </trkpt>
      <trkpt lat="44.81198" lon="5.09757">
        <ele>842.73</ele>
        <time>2022-02-17T10:31:43Z</time>
      </trkpt>
      <trkpt lat="44.81201" lon="5.09751">
        <ele>843.69</ele>
        <time>2022-02-17T10:34:31Z</time>
      </trkpt>
      <trkpt lat="44.81207" lon="5.09738">
        <ele>845.62</ele>
        <time>2022-02-17T10:34:45Z</time>
      </trkpt>
      <trkpt lat="44.81209" lon="5.09729">
        <ele>847.06</ele>
        <time>2022-02-17T10:34:56Z</time>
      </trkpt>
      <trkpt lat="44.81214" lon="5.09716">
        <ele>848.5</ele>
        <time>2022-02-17T10:35:10Z</time>
      </trkpt>
      <trkpt lat="44.8122" lon="5.09706">
        <ele>849.94</ele>
        <time>2022-02-17T10:35:21Z</time>
      </trkpt>
      <trkpt lat="44.81227" lon="5.09689">
        <ele>850.9</ele>
        <time>2022-02-17T10:35:37Z</time>
      </trkpt>
      <trkpt lat="44.81234" lon="5.09673">
        <ele>853.31</ele>
        <time>2022-02-17T10:35:53Z</time>
      </trkpt>
      <trkpt lat="44.81241" lon="5.09657">
        <ele>853.79</ele>
        <time>2022-02-17T10:36:07Z</time>
      </trkpt>
      <trkpt lat="44.81244" lon="5.09644">
        <ele>854.75</ele>
        <time>2022-02-17T10:36:17Z</time>
      </trkpt>
      <trkpt lat="44.81249" lon="5.0962">
        <ele>854.75</ele>
        <time>2022-02-17T10:36:32Z</time>
      </trkpt>
      <trkpt lat="44.81253" lon="5.09606">
        <ele>854.75</ele>
        <time>2022-02-17T10:36:46Z</time>
      </trkpt>
      <trkpt lat="44.81253" lon="5.09606">
        <ele>854.27</ele>
        <time>2022-02-17T10:36:55Z</time>
      </trkpt>
      <trkpt lat="44.81253" lon="5.09606">
        <ele>855.71</ele>
        <time>2022-02-17T10:37:01Z</time>
      </trkpt>
      <trkpt lat="44.81252" lon="5.09606">
        <ele>854.27</ele>
        <time>2022-02-17T10:37:05Z</time>
      </trkpt>
      <trkpt lat="44.81254" lon="5.09595">
        <ele>854.75</ele>
        <time>2022-02-17T10:37:22Z</time>
      </trkpt>
      <trkpt lat="44.81254" lon="5.09589">
        <ele>855.71</ele>
        <time>2022-02-17T10:37:28Z</time>
      </trkpt>
      <trkpt lat="44.81254" lon="5.09578">
        <ele>856.67</ele>
        <time>2022-02-17T10:37:36Z</time>
      </trkpt>
      <trkpt lat="44.81247" lon="5.09558">
        <ele>859.08</ele>
        <time>2022-02-17T10:37:52Z</time>
      </trkpt>
      <trkpt lat="44.81245" lon="5.09549">
        <ele>859.08</ele>
        <time>2022-02-17T10:37:59Z</time>
      </trkpt>
      <trkpt lat="44.81238" lon="5.0953">
        <ele>860.04</ele>
        <time>2022-02-17T10:38:15Z</time>
      </trkpt>
      <trkpt lat="44.81235" lon="5.09513">
        <ele>861.48</ele>
        <time>2022-02-17T10:38:28Z</time>
      </trkpt>
      <trkpt lat="44.81231" lon="5.09495">
        <ele>862.44</ele>
        <time>2022-02-17T10:38:41Z</time>
      </trkpt>
      <trkpt lat="44.81227" lon="5.09472">
        <ele>862.92</ele>
        <time>2022-02-17T10:38:57Z</time>
      </trkpt>
      <trkpt lat="44.81219" lon="5.09452">
        <ele>863.4</ele>
        <time>2022-02-17T10:39:12Z</time>
      </trkpt>
      <trkpt lat="44.8121" lon="5.09436">
        <ele>863.4</ele>
        <time>2022-02-17T10:39:25Z</time>
      </trkpt>
      <trkpt lat="44.81202" lon="5.09422">
        <ele>864.36</ele>
        <time>2022-02-17T10:39:40Z</time>
      </trkpt>
      <trkpt lat="44.81207" lon="5.09415">
        <ele>865.32</ele>
        <time>2022-02-17T10:41:28Z</time>
      </trkpt>
      <trkpt lat="44.81218" lon="5.09397">
        <ele>865.8</ele>
        <time>2022-02-17T10:41:45Z</time>
      </trkpt>
      <trkpt lat="44.81231" lon="5.09385">
        <ele>866.77</ele>
        <time>2022-02-17T10:42:01Z</time>
      </trkpt>
      <trkpt lat="44.81244" lon="5.0937">
        <ele>867.73</ele>
        <time>2022-02-17T10:42:18Z</time>
      </trkpt>
      <trkpt lat="44.81257" lon="5.09355">
        <ele>868.21</ele>
        <time>2022-02-17T10:42:35Z</time>
      </trkpt>
      <trkpt lat="44.81267" lon="5.09347">
        <ele>868.69</ele>
        <time>2022-02-17T10:42:52Z</time>
      </trkpt>
      <trkpt lat="44.81276" lon="5.09343">
        <ele>868.69</ele>
        <time>2022-02-17T10:43:06Z</time>
      </trkpt>
      <trkpt lat="44.81279" lon="5.09341">
        <ele>868.69</ele>
        <time>2022-02-17T10:43:08Z</time>
      </trkpt>
      <trkpt lat="44.81286" lon="5.09339">
        <ele>868.69</ele>
        <time>2022-02-17T10:43:15Z</time>
      </trkpt>
      <trkpt lat="44.81301" lon="5.09332">
        <ele>869.17</ele>
        <time>2022-02-17T10:43:31Z</time>
      </trkpt>
      <trkpt lat="44.81316" lon="5.09318">
        <ele>869.17</ele>
        <time>2022-02-17T10:43:49Z</time>
      </trkpt>
      <trkpt lat="44.81332" lon="5.09309">
        <ele>869.65</ele>
        <time>2022-02-17T10:44:06Z</time>
      </trkpt>
      <trkpt lat="44.81345" lon="5.09293">
        <ele>868.69</ele>
        <time>2022-02-17T10:44:24Z</time>
      </trkpt>
      <trkpt lat="44.8135" lon="5.09284">
        <ele>867.73</ele>
        <time>2022-02-17T10:44:38Z</time>
      </trkpt>
      <trkpt lat="44.81351" lon="5.09279">
        <ele>872.05</ele>
        <time>2022-02-17T11:57:35Z</time>
      </trkpt>
      <trkpt lat="44.81352" lon="5.09276">
        <ele>871.09</ele>
        <time>2022-02-17T11:57:48Z</time>
      </trkpt>
      <trkpt lat="44.81354" lon="5.09268">
        <ele>868.21</ele>
        <time>2022-02-17T11:58:02Z</time>
      </trkpt>
      <trkpt lat="44.81354" lon="5.09264">
        <ele>868.21</ele>
        <time>2022-02-17T11:58:17Z</time>
      </trkpt>
      <trkpt lat="44.81355" lon="5.09265">
        <ele>868.69</ele>
        <time>2022-02-17T11:59:14Z</time>
      </trkpt>
      <trkpt lat="44.81358" lon="5.09269">
        <ele>867.25</ele>
        <time>2022-02-17T11:59:30Z</time>
      </trkpt>
      <trkpt lat="44.81358" lon="5.09272">
        <ele>866.77</ele>
        <time>2022-02-17T11:59:55Z</time>
      </trkpt>
      <trkpt lat="44.8136" lon="5.09273">
        <ele>865.8</ele>
        <time>2022-02-17T12:00:21Z</time>
      </trkpt>
      <trkpt lat="44.81363" lon="5.09274">
        <ele>862.92</ele>
        <time>2022-02-17T12:00:43Z</time>
      </trkpt>
      <trkpt lat="44.8137" lon="5.09272">
        <ele>859.56</ele>
        <time>2022-02-17T12:00:59Z</time>
      </trkpt>
      <trkpt lat="44.81375" lon="5.09274">
        <ele>858.11</ele>
        <time>2022-02-17T12:01:16Z</time>
      </trkpt>
      <trkpt lat="44.81379" lon="5.09273">
        <ele>855.23</ele>
        <time>2022-02-17T12:01:32Z</time>
      </trkpt>
      <trkpt lat="44.81371" lon="5.09268">
        <ele>852.35</ele>
        <time>2022-02-17T12:01:45Z</time>
      </trkpt>
      <trkpt lat="44.81364" lon="5.0926">
        <ele>848.98</ele>
        <time>2022-02-17T12:01:58Z</time>
      </trkpt>
      <trkpt lat="44.81356" lon="5.09245">
        <ele>846.58</ele>
        <time>2022-02-17T12:02:11Z</time>
      </trkpt>
      <trkpt lat="44.81344" lon="5.09236">
        <ele>845.14</ele>
        <time>2022-02-17T12:02:26Z</time>
      </trkpt>
      <trkpt lat="44.81337" lon="5.09233">
        <ele>844.18</ele>
        <time>2022-02-17T12:02:41Z</time>
      </trkpt>
      <trkpt lat="44.81336" lon="5.09228">
        <ele>843.69</ele>
        <time>2022-02-17T12:03:02Z</time>
      </trkpt>
      <trkpt lat="44.81336" lon="5.09226">
        <ele>843.21</ele>
        <time>2022-02-17T12:03:20Z</time>
      </trkpt>
      <trkpt lat="44.81334" lon="5.09219">
        <ele>842.25</ele>
        <time>2022-02-17T12:03:37Z</time>
      </trkpt>
      <trkpt lat="44.81333" lon="5.09215">
        <ele>839.85</ele>
        <time>2022-02-17T12:03:53Z</time>
      </trkpt>
      <trkpt lat="44.8133" lon="5.09211">
        <ele>837.93</ele>
        <time>2022-02-17T12:04:10Z</time>
      </trkpt>
      <trkpt lat="44.81329" lon="5.09204">
        <ele>836</ele>
        <time>2022-02-17T12:04:29Z</time>
      </trkpt>
      <trkpt lat="44.81326" lon="5.092">
        <ele>833.6</ele>
        <time>2022-02-17T12:04:49Z</time>
      </trkpt>
      <trkpt lat="44.81324" lon="5.0919">
        <ele>831.68</ele>
        <time>2022-02-17T12:05:06Z</time>
      </trkpt>
      <trkpt lat="44.81326" lon="5.09184">
        <ele>828.31</ele>
        <time>2022-02-17T12:05:18Z</time>
      </trkpt>
      <trkpt lat="44.81327" lon="5.09183">
        <ele>827.83</ele>
        <time>2022-02-17T12:05:19Z</time>
      </trkpt>
      <trkpt lat="44.81328" lon="5.09172">
        <ele>824.95</ele>
        <time>2022-02-17T12:05:31Z</time>
      </trkpt>
      <trkpt lat="44.8133" lon="5.09169">
        <ele>821.58</ele>
        <time>2022-02-17T12:09:12Z</time>
      </trkpt>
      <trkpt lat="44.81337" lon="5.09174">
        <ele>820.62</ele>
        <time>2022-02-17T12:09:25Z</time>
      </trkpt>
      <trkpt lat="44.81342" lon="5.09179">
        <ele>817.26</ele>
        <time>2022-02-17T12:09:35Z</time>
      </trkpt>
      <trkpt lat="44.81352" lon="5.09184">
        <ele>813.89</ele>
        <time>2022-02-17T12:09:47Z</time>
      </trkpt>
      <trkpt lat="44.81361" lon="5.09178">
        <ele>811.01</ele>
        <time>2022-02-17T12:09:57Z</time>
      </trkpt>
      <trkpt lat="44.81367" lon="5.09173">
        <ele>808.13</ele>
        <time>2022-02-17T12:10:10Z</time>
      </trkpt>
      <trkpt lat="44.81376" lon="5.09172">
        <ele>805.24</ele>
        <time>2022-02-17T12:10:26Z</time>
      </trkpt>
      <trkpt lat="44.81389" lon="5.09173">
        <ele>801.88</ele>
        <time>2022-02-17T12:10:37Z</time>
      </trkpt>
      <trkpt lat="44.81396" lon="5.09169">
        <ele>800.44</ele>
        <time>2022-02-17T12:10:42Z</time>
      </trkpt>
      <trkpt lat="44.81405" lon="5.09165">
        <ele>797.07</ele>
        <time>2022-02-17T12:10:55Z</time>
      </trkpt>
      <trkpt lat="44.81415" lon="5.09163">
        <ele>793.71</ele>
        <time>2022-02-17T12:11:06Z</time>
      </trkpt>
      <trkpt lat="44.81428" lon="5.0916">
        <ele>790.34</ele>
        <time>2022-02-17T12:11:19Z</time>
      </trkpt>
      <trkpt lat="44.81445" lon="5.09159">
        <ele>786.5</ele>
        <time>2022-02-17T12:11:35Z</time>
      </trkpt>
      <trkpt lat="44.81455" lon="5.09155">
        <ele>783.13</ele>
        <time>2022-02-17T12:11:46Z</time>
      </trkpt>
      <trkpt lat="44.81462" lon="5.09151">
        <ele>781.69</ele>
        <time>2022-02-17T12:11:58Z</time>
      </trkpt>
      <trkpt lat="44.81473" lon="5.09147">
        <ele>777.36</ele>
        <time>2022-02-17T12:12:09Z</time>
      </trkpt>
      <trkpt lat="44.81477" lon="5.09143">
        <ele>775.92</ele>
        <time>2022-02-17T12:12:23Z</time>
      </trkpt>
      <trkpt lat="44.8148" lon="5.09141">
        <ele>775.44</ele>
        <time>2022-02-17T12:12:39Z</time>
      </trkpt>
      <trkpt lat="44.81479" lon="5.09139">
        <ele>776.4</ele>
        <time>2022-02-17T12:12:58Z</time>
      </trkpt>
      <trkpt lat="44.81479" lon="5.09136">
        <ele>774.96</ele>
        <time>2022-02-17T12:13:11Z</time>
      </trkpt>
      <trkpt lat="44.81479" lon="5.09125">
        <ele>772.08</ele>
        <time>2022-02-17T12:13:29Z</time>
      </trkpt>
      <trkpt lat="44.81481" lon="5.09117">
        <ele>769.67</ele>
        <time>2022-02-17T12:13:45Z</time>
      </trkpt>
      <trkpt lat="44.81487" lon="5.09112">
        <ele>766.79</ele>
        <time>2022-02-17T12:13:58Z</time>
      </trkpt>
      <trkpt lat="44.81493" lon="5.09098">
        <ele>763.9</ele>
        <time>2022-02-17T12:14:13Z</time>
      </trkpt>
      <trkpt lat="44.81495" lon="5.09096">
        <ele>763.42</ele>
        <time>2022-02-17T12:14:27Z</time>
      </trkpt>
      <trkpt lat="44.81509" lon="5.0909">
        <ele>761.98</ele>
        <time>2022-02-17T12:14:42Z</time>
      </trkpt>
      <trkpt lat="44.81515" lon="5.09084">
        <ele>759.1</ele>
        <time>2022-02-17T12:14:56Z</time>
      </trkpt>
      <trkpt lat="44.81517" lon="5.09082">
        <ele>758.62</ele>
        <time>2022-02-17T12:15:11Z</time>
      </trkpt>
      <trkpt lat="44.81524" lon="5.09078">
        <ele>757.66</ele>
        <time>2022-02-17T12:15:26Z</time>
      </trkpt>
      <trkpt lat="44.81528" lon="5.09075">
        <ele>756.21</ele>
        <time>2022-02-17T12:15:41Z</time>
      </trkpt>
      <trkpt lat="44.81529" lon="5.09075">
        <ele>755.73</ele>
        <time>2022-02-17T12:16:02Z</time>
      </trkpt>
      <trkpt lat="44.81532" lon="5.09074">
        <ele>755.73</ele>
        <time>2022-02-17T12:16:23Z</time>
      </trkpt>
      <trkpt lat="44.81534" lon="5.09073">
        <ele>755.73</ele>
        <time>2022-02-17T12:18:46Z</time>
      </trkpt>
      <trkpt lat="44.81545" lon="5.09068">
        <ele>753.33</ele>
        <time>2022-02-17T12:19:01Z</time>
      </trkpt>
      <trkpt lat="44.81555" lon="5.09061">
        <ele>750.45</ele>
        <time>2022-02-17T12:19:19Z</time>
      </trkpt>
      <trkpt lat="44.81563" lon="5.09057">
        <ele>747.08</ele>
        <time>2022-02-17T12:19:33Z</time>
      </trkpt>
      <trkpt lat="44.81573" lon="5.09054">
        <ele>744.2</ele>
        <time>2022-02-17T12:19:48Z</time>
      </trkpt>
      <trkpt lat="44.8158" lon="5.09052">
        <ele>741.31</ele>
        <time>2022-02-17T12:20:04Z</time>
      </trkpt>
      <trkpt lat="44.81594" lon="5.09054">
        <ele>739.39</ele>
        <time>2022-02-17T12:20:18Z</time>
      </trkpt>
      <trkpt lat="44.81598" lon="5.09049">
        <ele>737.95</ele>
        <time>2022-02-17T12:20:40Z</time>
      </trkpt>
      <trkpt lat="44.81591" lon="5.09047">
        <ele>738.91</ele>
        <time>2022-02-17T12:20:52Z</time>
      </trkpt>
      <trkpt lat="44.8158" lon="5.09042">
        <ele>739.87</ele>
        <time>2022-02-17T12:21:06Z</time>
      </trkpt>
      <trkpt lat="44.81568" lon="5.09038">
        <ele>740.83</ele>
        <time>2022-02-17T12:21:21Z</time>
      </trkpt>
      <trkpt lat="44.81557" lon="5.09036">
        <ele>741.79</ele>
        <time>2022-02-17T12:21:34Z</time>
      </trkpt>
      <trkpt lat="44.81543" lon="5.0903">
        <ele>741.79</ele>
        <time>2022-02-17T12:21:49Z</time>
      </trkpt>
      <trkpt lat="44.81527" lon="5.09023">
        <ele>741.79</ele>
        <time>2022-02-17T12:22:08Z</time>
      </trkpt>
      <trkpt lat="44.81518" lon="5.09021">
        <ele>741.79</ele>
        <time>2022-02-17T12:22:28Z</time>
      </trkpt>
      <trkpt lat="44.81515" lon="5.0902">
        <ele>740.35</ele>
        <time>2022-02-17T12:22:35Z</time>
      </trkpt>
      <trkpt lat="44.81508" lon="5.09019">
        <ele>740.35</ele>
        <time>2022-02-17T12:22:51Z</time>
      </trkpt>
      <trkpt lat="44.81499" lon="5.09013">
        <ele>739.87</ele>
        <time>2022-02-17T12:23:06Z</time>
      </trkpt>
      <trkpt lat="44.81491" lon="5.09011">
        <ele>738.43</ele>
        <time>2022-02-17T12:26:38Z</time>
      </trkpt>
      <trkpt lat="44.81486" lon="5.09009">
        <ele>738.91</ele>
        <time>2022-02-17T12:27:03Z</time>
      </trkpt>
      <trkpt lat="44.81471" lon="5.09">
        <ele>737.95</ele>
        <time>2022-02-17T12:27:20Z</time>
      </trkpt>
      <trkpt lat="44.81453" lon="5.08991">
        <ele>736.51</ele>
        <time>2022-02-17T12:27:39Z</time>
      </trkpt>
      <trkpt lat="44.81439" lon="5.08988">
        <ele>733.62</ele>
        <time>2022-02-17T12:27:55Z</time>
      </trkpt>
      <trkpt lat="44.81422" lon="5.08987">
        <ele>731.7</ele>
        <time>2022-02-17T12:28:11Z</time>
      </trkpt>
      <trkpt lat="44.81409" lon="5.08983">
        <ele>731.7</ele>
        <time>2022-02-17T12:28:24Z</time>
      </trkpt>
      <trkpt lat="44.81396" lon="5.08977">
        <ele>730.74</ele>
        <time>2022-02-17T12:28:36Z</time>
      </trkpt>
      <trkpt lat="44.81386" lon="5.08967">
        <ele>728.82</ele>
        <time>2022-02-17T12:28:49Z</time>
      </trkpt>
      <trkpt lat="44.81375" lon="5.08956">
        <ele>728.34</ele>
        <time>2022-02-17T12:29:01Z</time>
      </trkpt>
      <trkpt lat="44.81371" lon="5.08948">
        <ele>728.34</ele>
        <time>2022-02-17T12:29:07Z</time>
      </trkpt>
      <trkpt lat="44.81361" lon="5.0894">
        <ele>728.34</ele>
        <time>2022-02-17T12:29:19Z</time>
      </trkpt>
      <trkpt lat="44.81355" lon="5.08932">
        <ele>726.41</ele>
        <time>2022-02-17T12:29:31Z</time>
      </trkpt>
      <trkpt lat="44.81348" lon="5.0892">
        <ele>723.05</ele>
        <time>2022-02-17T12:29:43Z</time>
      </trkpt>
      <trkpt lat="44.81341" lon="5.08907">
        <ele>722.57</ele>
        <time>2022-02-17T12:29:54Z</time>
      </trkpt>
      <trkpt lat="44.81333" lon="5.08899">
        <ele>722.57</ele>
        <time>2022-02-17T12:30:10Z</time>
      </trkpt>
      <trkpt lat="44.8132" lon="5.08889">
        <ele>722.09</ele>
        <time>2022-02-17T12:30:25Z</time>
      </trkpt>
      <trkpt lat="44.81307" lon="5.08877">
        <ele>721.61</ele>
        <time>2022-02-17T12:30:38Z</time>
      </trkpt>
      <trkpt lat="44.81297" lon="5.08868">
        <ele>720.65</ele>
        <time>2022-02-17T12:30:48Z</time>
      </trkpt>
      <trkpt lat="44.81282" lon="5.08856">
        <ele>719.2</ele>
        <time>2022-02-17T12:31:05Z</time>
      </trkpt>
      <trkpt lat="44.81277" lon="5.08852">
        <ele>719.2</ele>
        <time>2022-02-17T12:31:20Z</time>
      </trkpt>
      <trkpt lat="44.81265" lon="5.0885">
        <ele>720.16</ele>
        <time>2022-02-17T12:31:35Z</time>
      </trkpt>
      <trkpt lat="44.8125" lon="5.08846">
        <ele>721.13</ele>
        <time>2022-02-17T12:31:52Z</time>
      </trkpt>
      <trkpt lat="44.81239" lon="5.08844">
        <ele>721.13</ele>
        <time>2022-02-17T12:32:04Z</time>
      </trkpt>
      <trkpt lat="44.81223" lon="5.08843">
        <ele>722.57</ele>
        <time>2022-02-17T12:32:17Z</time>
      </trkpt>
      <trkpt lat="44.81209" lon="5.0884">
        <ele>724.49</ele>
        <time>2022-02-17T12:32:34Z</time>
      </trkpt>
      <trkpt lat="44.81195" lon="5.08835">
        <ele>724.97</ele>
        <time>2022-02-17T12:32:48Z</time>
      </trkpt>
      <trkpt lat="44.81177" lon="5.08831">
        <ele>724.97</ele>
        <time>2022-02-17T12:33:03Z</time>
      </trkpt>
      <trkpt lat="44.81159" lon="5.08827">
        <ele>725.93</ele>
        <time>2022-02-17T12:33:19Z</time>
      </trkpt>
      <trkpt lat="44.81142" lon="5.08817">
        <ele>726.41</ele>
        <time>2022-02-17T12:33:34Z</time>
      </trkpt>
      <trkpt lat="44.81132" lon="5.08815">
        <ele>726.89</ele>
        <time>2022-02-17T12:33:45Z</time>
      </trkpt>
      <trkpt lat="44.81119" lon="5.08814">
        <ele>727.86</ele>
        <time>2022-02-17T12:33:58Z</time>
      </trkpt>
      <trkpt lat="44.81103" lon="5.0881">
        <ele>728.82</ele>
        <time>2022-02-17T12:34:13Z</time>
      </trkpt>
      <trkpt lat="44.81085" lon="5.08801">
        <ele>730.26</ele>
        <time>2022-02-17T12:34:29Z</time>
      </trkpt>
      <trkpt lat="44.81067" lon="5.08792">
        <ele>731.7</ele>
        <time>2022-02-17T12:34:47Z</time>
      </trkpt>
      <trkpt lat="44.81053" lon="5.08782">
        <ele>734.1</ele>
        <time>2022-02-17T12:35:03Z</time>
      </trkpt>
      <trkpt lat="44.81038" lon="5.08774">
        <ele>735.55</ele>
        <time>2022-02-17T12:35:17Z</time>
      </trkpt>
      <trkpt lat="44.81022" lon="5.08766">
        <ele>737.47</ele>
        <time>2022-02-17T12:35:33Z</time>
      </trkpt>
      <trkpt lat="44.81008" lon="5.08761">
        <ele>739.39</ele>
        <time>2022-02-17T12:35:47Z</time>
      </trkpt>
      <trkpt lat="44.80993" lon="5.08755">
        <ele>740.83</ele>
        <time>2022-02-17T12:36:02Z</time>
      </trkpt>
      <trkpt lat="44.80976" lon="5.08747">
        <ele>741.79</ele>
        <time>2022-02-17T12:36:18Z</time>
      </trkpt>
      <trkpt lat="44.80963" lon="5.0874">
        <ele>743.72</ele>
        <time>2022-02-17T12:36:32Z</time>
      </trkpt>
      <trkpt lat="44.80959" lon="5.08738">
        <ele>743.72</ele>
        <time>2022-02-17T12:36:36Z</time>
      </trkpt>
      <trkpt lat="44.80942" lon="5.08731">
        <ele>744.68</ele>
        <time>2022-02-17T12:36:53Z</time>
      </trkpt>
      <trkpt lat="44.80923" lon="5.08729">
        <ele>745.16</ele>
        <time>2022-02-17T12:37:12Z</time>
      </trkpt>
      <trkpt lat="44.80907" lon="5.08735">
        <ele>745.16</ele>
        <time>2022-02-17T12:37:29Z</time>
      </trkpt>
      <trkpt lat="44.80893" lon="5.08745">
        <ele>745.16</ele>
        <time>2022-02-17T12:37:45Z</time>
      </trkpt>
      <trkpt lat="44.80881" lon="5.08751">
        <ele>745.16</ele>
        <time>2022-02-17T12:38:00Z</time>
      </trkpt>
      <trkpt lat="44.80867" lon="5.08757">
        <ele>745.16</ele>
        <time>2022-02-17T12:38:14Z</time>
      </trkpt>
      <trkpt lat="44.80859" lon="5.08763">
        <ele>745.16</ele>
        <time>2022-02-17T12:38:28Z</time>
      </trkpt>
      <trkpt lat="44.8085" lon="5.08765">
        <ele>742.76</ele>
        <time>2022-02-17T12:38:41Z</time>
      </trkpt>
      <trkpt lat="44.80837" lon="5.0877">
        <ele>741.79</ele>
        <time>2022-02-17T12:38:55Z</time>
      </trkpt>
      <trkpt lat="44.80817" lon="5.08771">
        <ele>740.35</ele>
        <time>2022-02-17T12:39:12Z</time>
      </trkpt>
      <trkpt lat="44.80802" lon="5.08773">
        <ele>738.91</ele>
        <time>2022-02-17T12:39:25Z</time>
      </trkpt>
      <trkpt lat="44.80785" lon="5.08769">
        <ele>737.95</ele>
        <time>2022-02-17T12:39:40Z</time>
      </trkpt>
      <trkpt lat="44.80767" lon="5.08765">
        <ele>736.99</ele>
        <time>2022-02-17T12:39:56Z</time>
      </trkpt>
      <trkpt lat="44.8075" lon="5.08756">
        <ele>735.55</ele>
        <time>2022-02-17T12:40:10Z</time>
      </trkpt>
      <trkpt lat="44.80738" lon="5.08749">
        <ele>734.1</ele>
        <time>2022-02-17T12:40:24Z</time>
      </trkpt>
      <trkpt lat="44.80727" lon="5.08742">
        <ele>732.18</ele>
        <time>2022-02-17T12:40:38Z</time>
      </trkpt>
      <trkpt lat="44.80719" lon="5.08732">
        <ele>731.22</ele>
        <time>2022-02-17T12:40:51Z</time>
      </trkpt>
      <trkpt lat="44.80716" lon="5.08719">
        <ele>730.74</ele>
        <time>2022-02-17T12:41:07Z</time>
      </trkpt>
      <trkpt lat="44.80715" lon="5.08715">
        <ele>730.74</ele>
        <time>2022-02-17T12:41:10Z</time>
      </trkpt>
      <trkpt lat="44.80713" lon="5.08704">
        <ele>729.78</ele>
        <time>2022-02-17T12:41:16Z</time>
      </trkpt>
      <trkpt lat="44.8071" lon="5.08684">
        <ele>728.82</ele>
        <time>2022-02-17T12:41:34Z</time>
      </trkpt>
      <trkpt lat="44.80709" lon="5.08682">
        <ele>728.82</ele>
        <time>2022-02-17T12:41:38Z</time>
      </trkpt>
      <trkpt lat="44.80699" lon="5.08685">
        <ele>728.34</ele>
        <time>2022-02-17T12:41:53Z</time>
      </trkpt>
      <trkpt lat="44.80694" lon="5.08687">
        <ele>728.34</ele>
        <time>2022-02-17T12:42:07Z</time>
      </trkpt>
      <trkpt lat="44.80683" lon="5.08689">
        <ele>726.89</ele>
        <time>2022-02-17T12:42:23Z</time>
      </trkpt>
      <trkpt lat="44.80675" lon="5.0869">
        <ele>725.45</ele>
        <time>2022-02-17T12:42:32Z</time>
      </trkpt>
      <trkpt lat="44.80657" lon="5.08685">
        <ele>721.61</ele>
        <time>2022-02-17T12:42:49Z</time>
      </trkpt>
      <trkpt lat="44.8064" lon="5.08681">
        <ele>719.2</ele>
        <time>2022-02-17T12:43:06Z</time>
      </trkpt>
      <trkpt lat="44.80623" lon="5.08682">
        <ele>716.8</ele>
        <time>2022-02-17T12:43:23Z</time>
      </trkpt>
      <trkpt lat="44.80611" lon="5.08687">
        <ele>713.44</ele>
        <time>2022-02-17T12:43:38Z</time>
      </trkpt>
      <trkpt lat="44.80598" lon="5.08689">
        <ele>710.55</ele>
        <time>2022-02-17T12:43:52Z</time>
      </trkpt>
      <trkpt lat="44.80584" lon="5.0869">
        <ele>707.19</ele>
        <time>2022-02-17T12:44:09Z</time>
      </trkpt>
      <trkpt lat="44.80569" lon="5.08688">
        <ele>703.82</ele>
        <time>2022-02-17T12:44:23Z</time>
      </trkpt>
      <trkpt lat="44.8055" lon="5.08685">
        <ele>701.42</ele>
        <time>2022-02-17T12:44:41Z</time>
      </trkpt>
      <trkpt lat="44.80544" lon="5.08686">
        <ele>700.94</ele>
        <time>2022-02-17T12:44:57Z</time>
      </trkpt>
      <trkpt lat="44.80535" lon="5.08699">
        <ele>698.05</ele>
        <time>2022-02-17T12:45:13Z</time>
      </trkpt>
      <trkpt lat="44.80523" lon="5.08706">
        <ele>695.17</ele>
        <time>2022-02-17T12:45:30Z</time>
      </trkpt>
      <trkpt lat="44.8051" lon="5.08714">
        <ele>691.81</ele>
        <time>2022-02-17T12:45:49Z</time>
      </trkpt>
      <trkpt lat="44.80503" lon="5.08716">
        <ele>688.92</ele>
        <time>2022-02-17T12:46:00Z</time>
      </trkpt>
      <trkpt lat="44.80497" lon="5.08718">
        <ele>685.56</ele>
        <time>2022-02-17T12:46:09Z</time>
      </trkpt>
      <trkpt lat="44.80488" lon="5.08728">
        <ele>682.67</ele>
        <time>2022-02-17T12:46:24Z</time>
      </trkpt>
      <trkpt lat="44.80477" lon="5.08745">
        <ele>680.75</ele>
        <time>2022-02-17T12:46:41Z</time>
      </trkpt>
      <trkpt lat="44.80472" lon="5.08753">
        <ele>681.71</ele>
        <time>2022-02-17T12:46:47Z</time>
      </trkpt>
      <trkpt lat="44.80471" lon="5.08754">
        <ele>680.27</ele>
        <time>2022-02-17T12:46:49Z</time>
      </trkpt>
      <trkpt lat="44.80463" lon="5.08744">
        <ele>677.39</ele>
        <time>2022-02-17T12:47:01Z</time>
      </trkpt>
      <trkpt lat="44.80452" lon="5.08737">
        <ele>674.02</ele>
        <time>2022-02-17T12:47:16Z</time>
      </trkpt>
      <trkpt lat="44.80444" lon="5.08746">
        <ele>671.14</ele>
        <time>2022-02-17T12:47:29Z</time>
      </trkpt>
      <trkpt lat="44.8044" lon="5.08752">
        <ele>670.18</ele>
        <time>2022-02-17T12:47:35Z</time>
      </trkpt>
      <trkpt lat="44.80429" lon="5.08759">
        <ele>667.77</ele>
        <time>2022-02-17T12:47:46Z</time>
      </trkpt>
      <trkpt lat="44.80427" lon="5.08761">
        <ele>667.77</ele>
        <time>2022-02-17T12:47:48Z</time>
      </trkpt>
      <trkpt lat="44.80412" lon="5.08774">
        <ele>665.37</ele>
        <time>2022-02-17T12:48:05Z</time>
      </trkpt>
      <trkpt lat="44.80398" lon="5.08787">
        <ele>664.89</ele>
        <time>2022-02-17T12:48:21Z</time>
      </trkpt>
      <trkpt lat="44.80382" lon="5.08792">
        <ele>662.01</ele>
        <time>2022-02-17T12:48:39Z</time>
      </trkpt>
      <trkpt lat="44.80366" lon="5.08793">
        <ele>659.6</ele>
        <time>2022-02-17T12:48:59Z</time>
      </trkpt>
      <trkpt lat="44.80362" lon="5.08795">
        <ele>659.12</ele>
        <time>2022-02-17T12:49:09Z</time>
      </trkpt>
      <trkpt lat="44.80361" lon="5.08793">
        <ele>660.08</ele>
        <time>2022-02-17T12:51:17Z</time>
      </trkpt>
      <trkpt lat="44.80357" lon="5.08793">
        <ele>658.64</ele>
        <time>2022-02-17T12:51:39Z</time>
      </trkpt>
      <trkpt lat="44.80356" lon="5.08796">
        <ele>658.16</ele>
        <time>2022-02-17T12:52:00Z</time>
      </trkpt>
      <trkpt lat="44.80353" lon="5.08795">
        <ele>657.2</ele>
        <time>2022-02-17T12:52:20Z</time>
      </trkpt>
      <trkpt lat="44.80345" lon="5.08794">
        <ele>655.28</ele>
        <time>2022-02-17T12:52:36Z</time>
      </trkpt>
      <trkpt lat="44.80342" lon="5.08798">
        <ele>653.83</ele>
        <time>2022-02-17T12:52:53Z</time>
      </trkpt>
      <trkpt lat="44.80341" lon="5.08798">
        <ele>653.35</ele>
        <time>2022-02-17T12:53:15Z</time>
      </trkpt>
      <trkpt lat="44.80333" lon="5.08801">
        <ele>651.43</ele>
        <time>2022-02-17T12:53:32Z</time>
      </trkpt>
      <trkpt lat="44.80322" lon="5.08798">
        <ele>648.55</ele>
        <time>2022-02-17T12:53:45Z</time>
      </trkpt>
      <trkpt lat="44.80309" lon="5.08797">
        <ele>645.18</ele>
        <time>2022-02-17T12:53:58Z</time>
      </trkpt>
      <trkpt lat="44.80295" lon="5.08796">
        <ele>641.82</ele>
        <time>2022-02-17T12:54:13Z</time>
      </trkpt>
      <trkpt lat="44.80283" lon="5.08794">
        <ele>638.93</ele>
        <time>2022-02-17T12:54:28Z</time>
      </trkpt>
      <trkpt lat="44.8027" lon="5.088">
        <ele>636.05</ele>
        <time>2022-02-17T12:54:45Z</time>
      </trkpt>
      <trkpt lat="44.80257" lon="5.08802">
        <ele>633.17</ele>
        <time>2022-02-17T12:55:00Z</time>
      </trkpt>
      <trkpt lat="44.80247" lon="5.08804">
        <ele>629.8</ele>
        <time>2022-02-17T12:55:14Z</time>
      </trkpt>
      <trkpt lat="44.80236" lon="5.08798">
        <ele>626.92</ele>
        <time>2022-02-17T12:55:28Z</time>
      </trkpt>
      <trkpt lat="44.80224" lon="5.08796">
        <ele>624.51</ele>
        <time>2022-02-17T12:55:42Z</time>
      </trkpt>
      <trkpt lat="44.80215" lon="5.08799">
        <ele>621.15</ele>
        <time>2022-02-17T12:55:53Z</time>
      </trkpt>
      <trkpt lat="44.80198" lon="5.08801">
        <ele>617.78</ele>
        <time>2022-02-17T12:56:10Z</time>
      </trkpt>
      <trkpt lat="44.80184" lon="5.08804">
        <ele>614.42</ele>
        <time>2022-02-17T12:56:25Z</time>
      </trkpt>
      <trkpt lat="44.8017" lon="5.08809">
        <ele>611.54</ele>
        <time>2022-02-17T12:56:40Z</time>
      </trkpt>
      <trkpt lat="44.80158" lon="5.08817">
        <ele>608.65</ele>
        <time>2022-02-17T12:56:56Z</time>
      </trkpt>
      <trkpt lat="44.80152" lon="5.08818">
        <ele>607.21</ele>
        <time>2022-02-17T12:57:05Z</time>
      </trkpt>
      <trkpt lat="44.80147" lon="5.08819">
        <ele>605.77</ele>
        <time>2022-02-17T12:57:12Z</time>
      </trkpt>
      <trkpt lat="44.8014" lon="5.0882">
        <ele>602.4</ele>
        <time>2022-02-17T12:57:25Z</time>
      </trkpt>
      <trkpt lat="44.80132" lon="5.08827">
        <ele>599.04</ele>
        <time>2022-02-17T12:57:39Z</time>
      </trkpt>
      <trkpt lat="44.80126" lon="5.08837">
        <ele>596.15</ele>
        <time>2022-02-17T12:57:54Z</time>
      </trkpt>
      <trkpt lat="44.8012" lon="5.08849">
        <ele>593.75</ele>
        <time>2022-02-17T12:58:14Z</time>
      </trkpt>
      <trkpt lat="44.80114" lon="5.08851">
        <ele>590.39</ele>
        <time>2022-02-17T12:58:26Z</time>
      </trkpt>
      <trkpt lat="44.80107" lon="5.08848">
        <ele>587.5</ele>
        <time>2022-02-17T12:58:37Z</time>
      </trkpt>
      <trkpt lat="44.80097" lon="5.08849">
        <ele>584.62</ele>
        <time>2022-02-17T12:58:51Z</time>
      </trkpt>
      <trkpt lat="44.80093" lon="5.0885">
        <ele>584.62</ele>
        <time>2022-02-17T12:58:54Z</time>
      </trkpt>
      <trkpt lat="44.80081" lon="5.08851">
        <ele>582.22</ele>
        <time>2022-02-17T12:59:11Z</time>
      </trkpt>
      <trkpt lat="44.80078" lon="5.0885">
        <ele>583.66</ele>
        <time>2022-02-17T13:01:32Z</time>
      </trkpt>
      <trkpt lat="44.80077" lon="5.08848">
        <ele>583.66</ele>
        <time>2022-02-17T13:01:52Z</time>
      </trkpt>
      <trkpt lat="44.8007" lon="5.08846">
        <ele>583.66</ele>
        <time>2022-02-17T13:02:17Z</time>
      </trkpt>
      <trkpt lat="44.80056" lon="5.08843">
        <ele>580.77</ele>
        <time>2022-02-17T13:02:32Z</time>
      </trkpt>
      <trkpt lat="44.80045" lon="5.08841">
        <ele>579.81</ele>
        <time>2022-02-17T13:02:47Z</time>
      </trkpt>
      <trkpt lat="44.80031" lon="5.08835">
        <ele>577.89</ele>
        <time>2022-02-17T13:03:04Z</time>
      </trkpt>
      <trkpt lat="44.80013" lon="5.0883">
        <ele>574.53</ele>
        <time>2022-02-17T13:03:21Z</time>
      </trkpt>
      <trkpt lat="44.79997" lon="5.08822">
        <ele>572.12</ele>
        <time>2022-02-17T13:03:37Z</time>
      </trkpt>
      <trkpt lat="44.79982" lon="5.08812">
        <ele>569.72</ele>
        <time>2022-02-17T13:03:54Z</time>
      </trkpt>
      <trkpt lat="44.79979" lon="5.08813">
        <ele>567.8</ele>
        <time>2022-02-17T13:04:07Z</time>
      </trkpt>
      <trkpt lat="44.79988" lon="5.08827">
        <ele>564.91</ele>
        <time>2022-02-17T13:04:23Z</time>
      </trkpt>
      <trkpt lat="44.79999" lon="5.08848">
        <ele>561.55</ele>
        <time>2022-02-17T13:04:41Z</time>
      </trkpt>
      <trkpt lat="44.80001" lon="5.08853">
        <ele>561.07</ele>
        <time>2022-02-17T13:04:45Z</time>
      </trkpt>
      <trkpt lat="44.8001" lon="5.08872">
        <ele>558.18</ele>
        <time>2022-02-17T13:05:01Z</time>
      </trkpt>
      <trkpt lat="44.80021" lon="5.0889">
        <ele>555.3</ele>
        <time>2022-02-17T13:05:16Z</time>
      </trkpt>
      <trkpt lat="44.80029" lon="5.08906">
        <ele>551.93</ele>
        <time>2022-02-17T13:05:30Z</time>
      </trkpt>
      <trkpt lat="44.80035" lon="5.08926">
        <ele>549.05</ele>
        <time>2022-02-17T13:05:45Z</time>
      </trkpt>
      <trkpt lat="44.80034" lon="5.08943">
        <ele>547.13</ele>
        <time>2022-02-17T13:06:00Z</time>
      </trkpt>
      <trkpt lat="44.8003" lon="5.08952">
        <ele>544.24</ele>
        <time>2022-02-17T13:06:14Z</time>
      </trkpt>
      <trkpt lat="44.80023" lon="5.08958">
        <ele>540.88</ele>
        <time>2022-02-17T13:06:29Z</time>
      </trkpt>
      <trkpt lat="44.80018" lon="5.0895">
        <ele>538.48</ele>
        <time>2022-02-17T13:06:43Z</time>
      </trkpt>
      <trkpt lat="44.80016" lon="5.0895">
        <ele>535.11</ele>
        <time>2022-02-17T13:06:56Z</time>
      </trkpt>
      <trkpt lat="44.80009" lon="5.08959">
        <ele>532.71</ele>
        <time>2022-02-17T13:07:11Z</time>
      </trkpt>
      <trkpt lat="44.80006" lon="5.08953">
        <ele>531.75</ele>
        <time>2022-02-17T13:07:23Z</time>
      </trkpt>
      <trkpt lat="44.80002" lon="5.08955">
        <ele>528.86</ele>
        <time>2022-02-17T13:07:36Z</time>
      </trkpt>
      <trkpt lat="44.79996" lon="5.08965">
        <ele>526.94</ele>
        <time>2022-02-17T13:07:49Z</time>
      </trkpt>
      <trkpt lat="44.79982" lon="5.08979">
        <ele>524.54</ele>
        <time>2022-02-17T13:08:04Z</time>
      </trkpt>
      <trkpt lat="44.79967" lon="5.08987">
        <ele>521.65</ele>
        <time>2022-02-17T13:08:19Z</time>
      </trkpt>
      <trkpt lat="44.79956" lon="5.08995">
        <ele>519.25</ele>
        <time>2022-02-17T13:08:33Z</time>
      </trkpt>
      <trkpt lat="44.79941" lon="5.09001">
        <ele>516.85</ele>
        <time>2022-02-17T13:08:46Z</time>
      </trkpt>
      <trkpt lat="44.79923" lon="5.09008">
        <ele>513.96</ele>
        <time>2022-02-17T13:09:03Z</time>
      </trkpt>
      <trkpt lat="44.79914" lon="5.09002">
        <ele>511.56</ele>
        <time>2022-02-17T13:09:14Z</time>
      </trkpt>
      <trkpt lat="44.79923" lon="5.08988">
        <ele>508.67</ele>
        <time>2022-02-17T13:09:31Z</time>
      </trkpt>
      <trkpt lat="44.79926" lon="5.08974">
        <ele>507.71</ele>
        <time>2022-02-17T13:09:48Z</time>
      </trkpt>
      <trkpt lat="44.79927" lon="5.08973">
        <ele>507.23</ele>
        <time>2022-02-17T13:09:59Z</time>
      </trkpt>
      <trkpt lat="44.79927" lon="5.08972">
        <ele>507.23</ele>
        <time>2022-02-17T13:10:00Z</time>
      </trkpt>
      <trkpt lat="44.79929" lon="5.08952">
        <ele>505.31</ele>
        <time>2022-02-17T13:10:15Z</time>
      </trkpt>
      <trkpt lat="44.79935" lon="5.08932">
        <ele>505.31</ele>
        <time>2022-02-17T13:10:31Z</time>
      </trkpt>
      <trkpt lat="44.79945" lon="5.08915">
        <ele>506.75</ele>
        <time>2022-02-17T13:10:45Z</time>
      </trkpt>
      <trkpt lat="44.79952" lon="5.08901">
        <ele>506.75</ele>
        <time>2022-02-17T13:10:58Z</time>
      </trkpt>
      <trkpt lat="44.7996" lon="5.08889">
        <ele>505.31</ele>
        <time>2022-02-17T13:11:12Z</time>
      </trkpt>
      <trkpt lat="44.79959" lon="5.08877">
        <ele>503.87</ele>
        <time>2022-02-17T13:11:27Z</time>
      </trkpt>
      <trkpt lat="44.79956" lon="5.08864">
        <ele>502.43</ele>
        <time>2022-02-17T13:11:41Z</time>
      </trkpt>
      <trkpt lat="44.79954" lon="5.08855">
        <ele>501.46</ele>
        <time>2022-02-17T13:12:01Z</time>
      </trkpt>
      <trkpt lat="44.7995" lon="5.0884">
        <ele>501.46</ele>
        <time>2022-02-17T13:12:22Z</time>
      </trkpt>
      <trkpt lat="44.79939" lon="5.08829">
        <ele>499.06</ele>
        <time>2022-02-17T13:12:38Z</time>
      </trkpt>
      <trkpt lat="44.79921" lon="5.08829">
        <ele>496.66</ele>
        <time>2022-02-17T13:12:51Z</time>
      </trkpt>
      <trkpt lat="44.79908" lon="5.08824">
        <ele>494.26</ele>
        <time>2022-02-17T13:13:06Z</time>
      </trkpt>
      <trkpt lat="44.79895" lon="5.08818">
        <ele>490.89</ele>
        <time>2022-02-17T13:13:21Z</time>
      </trkpt>
      <trkpt lat="44.79881" lon="5.08815">
        <ele>489.45</ele>
        <time>2022-02-17T13:13:34Z</time>
      </trkpt>
      <trkpt lat="44.7987" lon="5.08809">
        <ele>487.53</ele>
        <time>2022-02-17T13:13:48Z</time>
      </trkpt>
      <trkpt lat="44.79851" lon="5.08802">
        <ele>484.64</ele>
        <time>2022-02-17T13:14:03Z</time>
      </trkpt>
      <trkpt lat="44.79834" lon="5.08791">
        <ele>481.76</ele>
        <time>2022-02-17T13:14:20Z</time>
      </trkpt>
      <trkpt lat="44.79821" lon="5.08783">
        <ele>480.32</ele>
        <time>2022-02-17T13:14:34Z</time>
      </trkpt>
      <trkpt lat="44.79807" lon="5.08784">
        <ele>477.91</ele>
        <time>2022-02-17T13:14:49Z</time>
      </trkpt>
      <trkpt lat="44.7979" lon="5.08784">
        <ele>475.99</ele>
        <time>2022-02-17T13:15:04Z</time>
      </trkpt>
      <trkpt lat="44.79784" lon="5.08788">
        <ele>475.03</ele>
        <time>2022-02-17T13:15:10Z</time>
      </trkpt>
      <trkpt lat="44.79765" lon="5.08802">
        <ele>471.66</ele>
        <time>2022-02-17T13:15:28Z</time>
      </trkpt>
      <trkpt lat="44.79751" lon="5.08813">
        <ele>469.26</ele>
        <time>2022-02-17T13:15:43Z</time>
      </trkpt>
      <trkpt lat="44.79741" lon="5.08835">
        <ele>466.38</ele>
        <time>2022-02-17T13:15:59Z</time>
      </trkpt>
      <trkpt lat="44.79732" lon="5.08856">
        <ele>465.42</ele>
        <time>2022-02-17T13:16:16Z</time>
      </trkpt>
      <trkpt lat="44.79722" lon="5.08874">
        <ele>463.97</ele>
        <time>2022-02-17T13:16:31Z</time>
      </trkpt>
      <trkpt lat="44.79713" lon="5.08897">
        <ele>462.05</ele>
        <time>2022-02-17T13:16:47Z</time>
      </trkpt>
      <trkpt lat="44.7971" lon="5.08903">
        <ele>460.61</ele>
        <time>2022-02-17T13:17:44Z</time>
      </trkpt>
      <trkpt lat="44.79707" lon="5.08901">
        <ele>461.57</ele>
        <time>2022-02-17T13:18:04Z</time>
      </trkpt>
      <trkpt lat="44.79693" lon="5.08898">
        <ele>459.65</ele>
        <time>2022-02-17T13:18:22Z</time>
      </trkpt>
      <trkpt lat="44.79684" lon="5.08897">
        <ele>459.17</ele>
        <time>2022-02-17T13:18:32Z</time>
      </trkpt>
      <trkpt lat="44.7967" lon="5.08897">
        <ele>458.21</ele>
        <time>2022-02-17T13:18:46Z</time>
      </trkpt>
      <trkpt lat="44.79657" lon="5.08901">
        <ele>456.28</ele>
        <time>2022-02-17T13:18:59Z</time>
      </trkpt>
      <trkpt lat="44.79637" lon="5.08904">
        <ele>455.32</ele>
        <time>2022-02-17T13:19:17Z</time>
      </trkpt>
      <trkpt lat="44.79617" lon="5.08906">
        <ele>454.36</ele>
        <time>2022-02-17T13:19:34Z</time>
      </trkpt>
      <trkpt lat="44.79602" lon="5.08906">
        <ele>452.44</ele>
        <time>2022-02-17T13:19:49Z</time>
      </trkpt>
      <trkpt lat="44.79599" lon="5.0891">
        <ele>452.44</ele>
        <time>2022-02-17T13:20:03Z</time>
      </trkpt>
      <trkpt lat="44.79588" lon="5.08914">
        <ele>451</ele>
        <time>2022-02-17T13:20:17Z</time>
      </trkpt>
      <trkpt lat="44.79573" lon="5.08916">
        <ele>449.07</ele>
        <time>2022-02-17T13:20:32Z</time>
      </trkpt>
      <trkpt lat="44.79563" lon="5.08922">
        <ele>446.19</ele>
        <time>2022-02-17T13:20:48Z</time>
      </trkpt>
      <trkpt lat="44.79567" lon="5.08931">
        <ele>445.71</ele>
        <time>2022-02-17T13:21:10Z</time>
      </trkpt>
      <trkpt lat="44.7957" lon="5.08936">
        <ele>447.15</ele>
        <time>2022-02-17T13:21:16Z</time>
      </trkpt>
      <trkpt lat="44.79582" lon="5.08953">
        <ele>447.63</ele>
        <time>2022-02-17T13:21:34Z</time>
      </trkpt>
      <trkpt lat="44.79591" lon="5.08957">
        <ele>448.59</ele>
        <time>2022-02-17T13:21:47Z</time>
      </trkpt>
      <trkpt lat="44.79597" lon="5.0896">
        <ele>448.59</ele>
        <time>2022-02-17T13:21:56Z</time>
      </trkpt>
      <trkpt lat="44.79611" lon="5.08973">
        <ele>448.59</ele>
        <time>2022-02-17T13:22:11Z</time>
      </trkpt>
      <trkpt lat="44.79619" lon="5.08978">
        <ele>448.59</ele>
        <time>2022-02-17T13:22:20Z</time>
      </trkpt>
      <trkpt lat="44.79621" lon="5.0898">
        <ele>447.15</ele>
        <time>2022-02-17T13:22:22Z</time>
      </trkpt>
      <trkpt lat="44.79625" lon="5.08984">
        <ele>446.67</ele>
        <time>2022-02-17T13:22:27Z</time>
      </trkpt>
      <trkpt lat="44.79638" lon="5.08996">
        <ele>445.71</ele>
        <time>2022-02-17T13:22:40Z</time>
      </trkpt>
      <trkpt lat="44.79647" lon="5.09004">
        <ele>445.23</ele>
        <time>2022-02-17T13:22:51Z</time>
      </trkpt>
      <trkpt lat="44.79661" lon="5.09013">
        <ele>444.75</ele>
        <time>2022-02-17T13:23:06Z</time>
      </trkpt>
      <trkpt lat="44.79669" lon="5.09019">
        <ele>445.71</ele>
        <time>2022-02-17T13:23:19Z</time>
      </trkpt>
      <trkpt lat="44.79672" lon="5.09027">
        <ele>445.71</ele>
        <time>2022-02-17T13:23:33Z</time>
      </trkpt>
      <trkpt lat="44.79676" lon="5.09041">
        <ele>445.71</ele>
        <time>2022-02-17T13:23:46Z</time>
      </trkpt>
      <trkpt lat="44.79677" lon="5.09046">
        <ele>444.27</ele>
        <time>2022-02-17T13:23:50Z</time>
      </trkpt>
      <trkpt lat="44.79686" lon="5.09073">
        <ele>442.34</ele>
        <time>2022-02-17T13:24:10Z</time>
      </trkpt>
      <trkpt lat="44.79695" lon="5.09103">
        <ele>439.94</ele>
        <time>2022-02-17T13:24:28Z</time>
      </trkpt>
      <trkpt lat="44.79704" lon="5.0913">
        <ele>438.02</ele>
        <time>2022-02-17T13:24:45Z</time>
      </trkpt>
      <trkpt lat="44.79705" lon="5.09133">
        <ele>437.54</ele>
        <time>2022-02-17T13:24:47Z</time>
      </trkpt>
      <trkpt lat="44.79715" lon="5.09163">
        <ele>435.13</ele>
        <time>2022-02-17T13:25:06Z</time>
      </trkpt>
      <trkpt lat="44.79727" lon="5.09193">
        <ele>433.69</ele>
        <time>2022-02-17T13:25:24Z</time>
      </trkpt>
      <trkpt lat="44.79741" lon="5.09218">
        <ele>433.21</ele>
        <time>2022-02-17T13:25:41Z</time>
      </trkpt>
      <trkpt lat="44.79754" lon="5.09238">
        <ele>434.65</ele>
        <time>2022-02-17T13:25:58Z</time>
      </trkpt>
      <trkpt lat="44.79755" lon="5.09242">
        <ele>434.65</ele>
        <time>2022-02-17T13:26:01Z</time>
      </trkpt>
      <trkpt lat="44.79758" lon="5.0925">
        <ele>434.65</ele>
        <time>2022-02-17T13:26:07Z</time>
      </trkpt>
      <trkpt lat="44.79755" lon="5.09266">
        <ele>435.13</ele>
        <time>2022-02-17T13:26:23Z</time>
      </trkpt>
      <trkpt lat="44.79751" lon="5.09274">
        <ele>435.13</ele>
        <time>2022-02-17T13:26:32Z</time>
      </trkpt>
      <trkpt lat="44.79744" lon="5.09283">
        <ele>435.13</ele>
        <time>2022-02-17T13:26:40Z</time>
      </trkpt>
      <trkpt lat="44.79744" lon="5.09285">
        <ele>435.13</ele>
        <time>2022-02-17T13:26:42Z</time>
      </trkpt>
      <trkpt lat="44.79729" lon="5.09312">
        <ele>435.13</ele>
        <time>2022-02-17T13:27:02Z</time>
      </trkpt>
      <trkpt lat="44.79718" lon="5.09334">
        <ele>435.13</ele>
        <time>2022-02-17T13:27:20Z</time>
      </trkpt>
      <trkpt lat="44.79716" lon="5.09338">
        <ele>433.69</ele>
        <time>2022-02-17T13:27:24Z</time>
      </trkpt>
      <trkpt lat="44.79715" lon="5.0934">
        <ele>435.13</ele>
        <time>2022-02-17T13:27:27Z</time>
      </trkpt>
      <trkpt lat="44.79714" lon="5.09349">
        <ele>435.13</ele>
        <time>2022-02-17T13:27:34Z</time>
      </trkpt>
      <trkpt lat="44.79716" lon="5.09354">
        <ele>432.73</ele>
        <time>2022-02-17T13:27:40Z</time>
      </trkpt>
      <trkpt lat="44.7972" lon="5.09356">
        <ele>433.69</ele>
        <time>2022-02-17T13:27:46Z</time>
      </trkpt>
      <trkpt lat="44.79723" lon="5.09358">
        <ele>434.65</ele>
        <time>2022-02-17T13:27:50Z</time>
      </trkpt>
      <trkpt lat="44.79733" lon="5.09364">
        <ele>435.13</ele>
        <time>2022-02-17T13:28:02Z</time>
      </trkpt>
      <trkpt lat="44.79745" lon="5.0938">
        <ele>436.1</ele>
        <time>2022-02-17T13:28:18Z</time>
      </trkpt>
      <trkpt lat="44.79757" lon="5.09398">
        <ele>437.06</ele>
        <time>2022-02-17T13:28:32Z</time>
      </trkpt>
      <trkpt lat="44.79757" lon="5.09399">
        <ele>437.06</ele>
        <time>2022-02-17T13:28:33Z</time>
      </trkpt>
      <trkpt lat="44.79759" lon="5.094">
        <ele>437.06</ele>
        <time>2022-02-17T13:28:35Z</time>
      </trkpt>
      <trkpt lat="44.79771" lon="5.09412">
        <ele>438.5</ele>
        <time>2022-02-17T13:28:49Z</time>
      </trkpt>
      <trkpt lat="44.79783" lon="5.09419">
        <ele>439.46</ele>
        <time>2022-02-17T13:29:03Z</time>
      </trkpt>
      <trkpt lat="44.798" lon="5.09432">
        <ele>439.46</ele>
        <time>2022-02-17T13:29:21Z</time>
      </trkpt>
      <trkpt lat="44.79813" lon="5.0944">
        <ele>440.42</ele>
        <time>2022-02-17T13:29:35Z</time>
      </trkpt>
      <trkpt lat="44.79827" lon="5.09451">
        <ele>441.86</ele>
        <time>2022-02-17T13:29:50Z</time>
      </trkpt>
      <trkpt lat="44.79842" lon="5.09458">
        <ele>442.82</ele>
        <time>2022-02-17T13:30:05Z</time>
      </trkpt>
      <trkpt lat="44.79848" lon="5.09465">
        <ele>443.79</ele>
        <time>2022-02-17T13:30:12Z</time>
      </trkpt>
      <trkpt lat="44.79861" lon="5.09483">
        <ele>445.71</ele>
        <time>2022-02-17T13:30:28Z</time>
      </trkpt>
      <trkpt lat="44.79862" lon="5.09484">
        <ele>445.71</ele>
        <time>2022-02-17T13:30:29Z</time>
      </trkpt>
      <trkpt lat="44.7987" lon="5.09501">
        <ele>446.67</ele>
        <time>2022-02-17T13:30:42Z</time>
      </trkpt>
      <trkpt lat="44.79874" lon="5.09509">
        <ele>447.63</ele>
        <time>2022-02-17T13:30:49Z</time>
      </trkpt>
      <trkpt lat="44.79875" lon="5.09516">
        <ele>447.63</ele>
        <time>2022-02-17T13:30:54Z</time>
      </trkpt>
      <trkpt lat="44.7988" lon="5.09527">
        <ele>448.59</ele>
        <time>2022-02-17T13:31:07Z</time>
      </trkpt>
      <trkpt lat="44.79889" lon="5.0954">
        <ele>449.55</ele>
        <time>2022-02-17T13:31:22Z</time>
      </trkpt>
      <trkpt lat="44.79897" lon="5.09555">
        <ele>451</ele>
        <time>2022-02-17T13:31:38Z</time>
      </trkpt>
      <trkpt lat="44.79908" lon="5.09569">
        <ele>451.96</ele>
        <time>2022-02-17T13:31:53Z</time>
      </trkpt>
      <trkpt lat="44.79918" lon="5.09584">
        <ele>453.4</ele>
        <time>2022-02-17T13:32:08Z</time>
      </trkpt>
      <trkpt lat="44.79926" lon="5.09598">
        <ele>454.84</ele>
        <time>2022-02-17T13:32:21Z</time>
      </trkpt>
      <trkpt lat="44.79927" lon="5.09601">
        <ele>454.84</ele>
        <time>2022-02-17T13:32:23Z</time>
      </trkpt>
      <trkpt lat="44.79938" lon="5.09619">
        <ele>454.84</ele>
        <time>2022-02-17T13:32:40Z</time>
      </trkpt>
      <trkpt lat="44.79947" lon="5.09639">
        <ele>458.21</ele>
        <time>2022-02-17T13:32:56Z</time>
      </trkpt>
      <trkpt lat="44.79952" lon="5.09648">
        <ele>456.76</ele>
        <time>2022-02-17T13:33:04Z</time>
      </trkpt>
      <trkpt lat="44.79952" lon="5.09664">
        <ele>458.69</ele>
        <time>2022-02-17T13:33:20Z</time>
      </trkpt>
      <trkpt lat="44.79955" lon="5.09662">
        <ele>458.21</ele>
        <time>2022-02-17T13:33:33Z</time>
      </trkpt>
      <trkpt lat="44.79969" lon="5.09664">
        <ele>460.13</ele>
        <time>2022-02-17T13:33:49Z</time>
      </trkpt>
      <trkpt lat="44.79978" lon="5.09673">
        <ele>460.61</ele>
        <time>2022-02-17T13:34:02Z</time>
      </trkpt>
      <trkpt lat="44.79986" lon="5.0969">
        <ele>462.53</ele>
        <time>2022-02-17T13:34:19Z</time>
      </trkpt>
      <trkpt lat="44.7999" lon="5.09708">
        <ele>463.01</ele>
        <time>2022-02-17T13:34:33Z</time>
      </trkpt>
      <trkpt lat="44.79993" lon="5.09725">
        <ele>464.45</ele>
        <time>2022-02-17T13:34:47Z</time>
      </trkpt>
      <trkpt lat="44.79997" lon="5.09744">
        <ele>465.42</ele>
        <time>2022-02-17T13:35:01Z</time>
      </trkpt>
      <trkpt lat="44.79999" lon="5.0976">
        <ele>466.86</ele>
        <time>2022-02-17T13:35:14Z</time>
      </trkpt>
      <trkpt lat="44.80003" lon="5.09776">
        <ele>467.82</ele>
        <time>2022-02-17T13:35:27Z</time>
      </trkpt>
      <trkpt lat="44.80006" lon="5.09793">
        <ele>469.26</ele>
        <time>2022-02-17T13:35:40Z</time>
      </trkpt>
      <trkpt lat="44.80008" lon="5.09809">
        <ele>471.18</ele>
        <time>2022-02-17T13:35:53Z</time>
      </trkpt>
      <trkpt lat="44.80014" lon="5.09823">
        <ele>472.63</ele>
        <time>2022-02-17T13:36:07Z</time>
      </trkpt>
      <trkpt lat="44.8002" lon="5.09828">
        <ele>473.59</ele>
        <time>2022-02-17T13:36:24Z</time>
      </trkpt>
      <trkpt lat="44.80028" lon="5.09835">
        <ele>475.03</ele>
        <time>2022-02-17T13:36:39Z</time>
      </trkpt>
      <trkpt lat="44.80035" lon="5.09851">
        <ele>476.47</ele>
        <time>2022-02-17T13:36:54Z</time>
      </trkpt>
      <trkpt lat="44.80034" lon="5.09859">
        <ele>477.43</ele>
        <time>2022-02-17T13:37:00Z</time>
      </trkpt>
      <trkpt lat="44.80031" lon="5.0988">
        <ele>479.84</ele>
        <time>2022-02-17T13:37:16Z</time>
      </trkpt>
      <trkpt lat="44.80033" lon="5.09892">
        <ele>481.76</ele>
        <time>2022-02-17T13:37:29Z</time>
      </trkpt>
      <trkpt lat="44.80035" lon="5.09907">
        <ele>483.2</ele>
        <time>2022-02-17T13:37:43Z</time>
      </trkpt>
      <trkpt lat="44.80036" lon="5.09923">
        <ele>484.16</ele>
        <time>2022-02-17T13:37:56Z</time>
      </trkpt>
      <trkpt lat="44.80038" lon="5.09942">
        <ele>486.08</ele>
        <time>2022-02-17T13:38:12Z</time>
      </trkpt>
      <trkpt lat="44.80042" lon="5.09959">
        <ele>487.53</ele>
        <time>2022-02-17T13:38:26Z</time>
      </trkpt>
      <trkpt lat="44.80048" lon="5.09975">
        <ele>488.97</ele>
        <time>2022-02-17T13:38:41Z</time>
      </trkpt>
      <trkpt lat="44.80057" lon="5.09986">
        <ele>490.89</ele>
        <time>2022-02-17T13:38:56Z</time>
      </trkpt>
      <trkpt lat="44.80067" lon="5.09997">
        <ele>493.77</ele>
        <time>2022-02-17T13:39:12Z</time>
      </trkpt>
      <trkpt lat="44.80075" lon="5.10014">
        <ele>494.74</ele>
        <time>2022-02-17T13:39:26Z</time>
      </trkpt>
      <trkpt lat="44.80079" lon="5.10026">
        <ele>496.66</ele>
        <time>2022-02-17T13:39:40Z</time>
      </trkpt>
      <trkpt lat="44.80083" lon="5.10038">
        <ele>499.06</ele>
        <time>2022-02-17T13:39:54Z</time>
      </trkpt>
      <trkpt lat="44.80074" lon="5.10048">
        <ele>501.46</ele>
        <time>2022-02-17T13:40:10Z</time>
      </trkpt>
      <trkpt lat="44.80061" lon="5.10046">
        <ele>503.39</ele>
        <time>2022-02-17T13:40:24Z</time>
      </trkpt>
      <trkpt lat="44.80053" lon="5.10046">
        <ele>504.35</ele>
        <time>2022-02-17T13:40:33Z</time>
      </trkpt>
      <trkpt lat="44.80042" lon="5.10047">
        <ele>505.79</ele>
        <time>2022-02-17T13:40:44Z</time>
      </trkpt>
      <trkpt lat="44.80027" lon="5.10051">
        <ele>506.75</ele>
        <time>2022-02-17T13:41:00Z</time>
      </trkpt>
      <trkpt lat="44.80012" lon="5.10059">
        <ele>507.71</ele>
        <time>2022-02-17T13:41:17Z</time>
      </trkpt>
      <trkpt lat="44.79998" lon="5.10065">
        <ele>509.16</ele>
        <time>2022-02-17T13:41:31Z</time>
      </trkpt>
      <trkpt lat="44.79977" lon="5.10067">
        <ele>510.6</ele>
        <time>2022-02-17T13:41:50Z</time>
      </trkpt>
      <trkpt lat="44.7996" lon="5.10065">
        <ele>512.04</ele>
        <time>2022-02-17T13:42:06Z</time>
      </trkpt>
      <trkpt lat="44.79946" lon="5.10065">
        <ele>513.96</ele>
        <time>2022-02-17T13:42:19Z</time>
      </trkpt>
      <trkpt lat="44.79948" lon="5.10079">
        <ele>515.88</ele>
        <time>2022-02-17T13:42:32Z</time>
      </trkpt>
      <trkpt lat="44.79941" lon="5.10086">
        <ele>518.77</ele>
        <time>2022-02-17T13:42:47Z</time>
      </trkpt>
      <trkpt lat="44.79927" lon="5.1008">
        <ele>521.65</ele>
        <time>2022-02-17T13:43:03Z</time>
      </trkpt>
      <trkpt lat="44.79918" lon="5.10084">
        <ele>524.06</ele>
        <time>2022-02-17T13:43:17Z</time>
      </trkpt>
      <trkpt lat="44.7991" lon="5.10087">
        <ele>526.94</ele>
        <time>2022-02-17T13:43:29Z</time>
      </trkpt>
      <trkpt lat="44.79902" lon="5.10086">
        <ele>526.94</ele>
        <time>2022-02-17T13:43:37Z</time>
      </trkpt>
      <trkpt lat="44.79899" lon="5.10083">
        <ele>526.46</ele>
        <time>2022-02-17T13:43:39Z</time>
      </trkpt>
      <trkpt lat="44.79895" lon="5.10078">
        <ele>526.46</ele>
        <time>2022-02-17T13:43:47Z</time>
      </trkpt>
      <trkpt lat="44.79893" lon="5.10079">
        <ele>526.46</ele>
        <time>2022-02-17T13:43:48Z</time>
      </trkpt>
      <trkpt lat="44.79882" lon="5.10079">
        <ele>526.94</ele>
        <time>2022-02-17T13:44:00Z</time>
      </trkpt>
      <trkpt lat="44.7987" lon="5.10075">
        <ele>527.9</ele>
        <time>2022-02-17T13:44:14Z</time>
      </trkpt>
      <trkpt lat="44.79861" lon="5.10067">
        <ele>529.34</ele>
        <time>2022-02-17T13:44:27Z</time>
      </trkpt>
      <trkpt lat="44.79849" lon="5.10056">
        <ele>531.27</ele>
        <time>2022-02-17T13:44:40Z</time>
      </trkpt>
      <trkpt lat="44.7984" lon="5.10054">
        <ele>533.19</ele>
        <time>2022-02-17T13:44:51Z</time>
      </trkpt>
      <trkpt lat="44.79829" lon="5.10057">
        <ele>535.11</ele>
        <time>2022-02-17T13:45:06Z</time>
      </trkpt>
      <trkpt lat="44.7982" lon="5.10059">
        <ele>537.03</ele>
        <time>2022-02-17T13:45:19Z</time>
      </trkpt>
      <trkpt lat="44.79807" lon="5.10057">
        <ele>538.48</ele>
        <time>2022-02-17T13:45:33Z</time>
      </trkpt>
      <trkpt lat="44.79799" lon="5.10046">
        <ele>540.88</ele>
        <time>2022-02-17T13:45:46Z</time>
      </trkpt>
      <trkpt lat="44.79783" lon="5.10038">
        <ele>542.8</ele>
        <time>2022-02-17T13:46:01Z</time>
      </trkpt>
      <trkpt lat="44.79768" lon="5.10038">
        <ele>544.24</ele>
        <time>2022-02-17T13:46:16Z</time>
      </trkpt>
      <trkpt lat="44.79751" lon="5.10036">
        <ele>546.17</ele>
        <time>2022-02-17T13:46:34Z</time>
      </trkpt>
      <trkpt lat="44.79738" lon="5.10036">
        <ele>547.13</ele>
        <time>2022-02-17T13:46:48Z</time>
      </trkpt>
      <trkpt lat="44.79727" lon="5.10037">
        <ele>547.61</ele>
        <time>2022-02-17T13:47:01Z</time>
      </trkpt>
      <trkpt lat="44.79707" lon="5.10036">
        <ele>549.53</ele>
        <time>2022-02-17T13:47:18Z</time>
      </trkpt>
      <trkpt lat="44.79697" lon="5.10038">
        <ele>550.49</ele>
        <time>2022-02-17T13:47:30Z</time>
      </trkpt>
      <trkpt lat="44.79688" lon="5.10049">
        <ele>552.9</ele>
        <time>2022-02-17T13:47:44Z</time>
      </trkpt>
      <trkpt lat="44.79681" lon="5.10065">
        <ele>556.26</ele>
        <time>2022-02-17T13:48:00Z</time>
      </trkpt>
      <trkpt lat="44.79671" lon="5.10074">
        <ele>558.66</ele>
        <time>2022-02-17T13:48:16Z</time>
      </trkpt>
      <trkpt lat="44.7966" lon="5.10075">
        <ele>560.11</ele>
        <time>2022-02-17T13:48:27Z</time>
      </trkpt>
      <trkpt lat="44.79646" lon="5.10074">
        <ele>561.07</ele>
        <time>2022-02-17T13:48:41Z</time>
      </trkpt>
      <trkpt lat="44.7963" lon="5.10073">
        <ele>561.07</ele>
        <time>2022-02-17T13:48:55Z</time>
      </trkpt>
      <trkpt lat="44.79611" lon="5.1007">
        <ele>562.03</ele>
        <time>2022-02-17T13:49:12Z</time>
      </trkpt>
      <trkpt lat="44.79589" lon="5.10067">
        <ele>562.99</ele>
        <time>2022-02-17T13:49:31Z</time>
      </trkpt>
      <trkpt lat="44.79572" lon="5.10066">
        <ele>563.95</ele>
        <time>2022-02-17T13:49:47Z</time>
      </trkpt>
      <trkpt lat="44.79553" lon="5.10064">
        <ele>565.39</ele>
        <time>2022-02-17T13:50:04Z</time>
      </trkpt>
      <trkpt lat="44.79534" lon="5.1006">
        <ele>566.35</ele>
        <time>2022-02-17T13:50:21Z</time>
      </trkpt>
      <trkpt lat="44.79517" lon="5.10058">
        <ele>568.28</ele>
        <time>2022-02-17T13:50:37Z</time>
      </trkpt>
      <trkpt lat="44.79504" lon="5.10057">
        <ele>570.2</ele>
        <time>2022-02-17T13:50:50Z</time>
      </trkpt>
      <trkpt lat="44.79493" lon="5.10059">
        <ele>571.64</ele>
        <time>2022-02-17T13:51:00Z</time>
      </trkpt>
      <trkpt lat="44.79483" lon="5.10072">
        <ele>573.08</ele>
        <time>2022-02-17T13:51:13Z</time>
      </trkpt>
      <trkpt lat="44.79479" lon="5.10079">
        <ele>573.56</ele>
        <time>2022-02-17T13:51:19Z</time>
      </trkpt>
      <trkpt lat="44.79468" lon="5.10091">
        <ele>575.49</ele>
        <time>2022-02-17T13:51:33Z</time>
      </trkpt>
      <trkpt lat="44.79458" lon="5.10104">
        <ele>575.97</ele>
        <time>2022-02-17T13:51:47Z</time>
      </trkpt>
      <trkpt lat="44.79453" lon="5.10112">
        <ele>576.93</ele>
        <time>2022-02-17T13:51:54Z</time>
      </trkpt>
      <trkpt lat="44.79444" lon="5.10126">
        <ele>577.89</ele>
        <time>2022-02-17T13:52:07Z</time>
      </trkpt>
      <trkpt lat="44.79434" lon="5.10138">
        <ele>578.85</ele>
        <time>2022-02-17T13:52:19Z</time>
      </trkpt>
      <trkpt lat="44.79422" lon="5.10152">
        <ele>580.77</ele>
        <time>2022-02-17T13:52:34Z</time>
      </trkpt>
      <trkpt lat="44.7941" lon="5.10163">
        <ele>582.7</ele>
        <time>2022-02-17T13:52:49Z</time>
      </trkpt>
      <trkpt lat="44.79393" lon="5.1017">
        <ele>583.18</ele>
        <time>2022-02-17T13:53:06Z</time>
      </trkpt>
      <trkpt lat="44.79375" lon="5.10176">
        <ele>584.14</ele>
        <time>2022-02-17T13:53:21Z</time>
      </trkpt>
      <trkpt lat="44.79358" lon="5.10181">
        <ele>585.58</ele>
        <time>2022-02-17T13:53:37Z</time>
      </trkpt>
      <trkpt lat="44.79343" lon="5.10185">
        <ele>586.54</ele>
        <time>2022-02-17T13:53:52Z</time>
      </trkpt>
      <trkpt lat="44.79342" lon="5.10186">
        <ele>585.58</ele>
        <time>2022-02-17T13:54:07Z</time>
      </trkpt>
      <trkpt lat="44.79337" lon="5.10189">
        <ele>586.06</ele>
        <time>2022-02-17T14:02:29Z</time>
      </trkpt>
      <trkpt lat="44.79338" lon="5.10206">
        <ele>584.62</ele>
        <time>2022-02-17T14:02:47Z</time>
      </trkpt>
      <trkpt lat="44.79341" lon="5.10221">
        <ele>584.14</ele>
        <time>2022-02-17T14:03:01Z</time>
      </trkpt>
      <trkpt lat="44.79343" lon="5.10239">
        <ele>582.22</ele>
        <time>2022-02-17T14:03:15Z</time>
      </trkpt>
      <trkpt lat="44.79339" lon="5.10264">
        <ele>579.81</ele>
        <time>2022-02-17T14:03:32Z</time>
      </trkpt>
      <trkpt lat="44.79334" lon="5.1029">
        <ele>576.93</ele>
        <time>2022-02-17T14:03:47Z</time>
      </trkpt>
      <trkpt lat="44.79327" lon="5.10312">
        <ele>575.49</ele>
        <time>2022-02-17T14:04:00Z</time>
      </trkpt>
      <trkpt lat="44.7932" lon="5.10332">
        <ele>575.01</ele>
        <time>2022-02-17T14:04:16Z</time>
      </trkpt>
      <trkpt lat="44.79306" lon="5.10356">
        <ele>573.56</ele>
        <time>2022-02-17T14:04:33Z</time>
      </trkpt>
      <trkpt lat="44.79297" lon="5.10369">
        <ele>573.56</ele>
        <time>2022-02-17T14:04:42Z</time>
      </trkpt>
      <trkpt lat="44.79286" lon="5.10386">
        <ele>573.56</ele>
        <time>2022-02-17T14:04:56Z</time>
      </trkpt>
      <trkpt lat="44.79272" lon="5.10404">
        <ele>572.6</ele>
        <time>2022-02-17T14:05:11Z</time>
      </trkpt>
      <trkpt lat="44.79262" lon="5.10416">
        <ele>571.64</ele>
        <time>2022-02-17T14:05:21Z</time>
      </trkpt>
      <trkpt lat="44.79262" lon="5.10417">
        <ele>571.64</ele>
        <time>2022-02-17T14:05:22Z</time>
      </trkpt>
      <trkpt lat="44.79261" lon="5.10418">
        <ele>571.64</ele>
        <time>2022-02-17T14:05:23Z</time>
      </trkpt>
      <trkpt lat="44.79255" lon="5.10442">
        <ele>572.6</ele>
        <time>2022-02-17T14:05:39Z</time>
      </trkpt>
      <trkpt lat="44.79253" lon="5.10452">
        <ele>572.6</ele>
        <time>2022-02-17T14:05:43Z</time>
      </trkpt>
      <trkpt lat="44.79254" lon="5.10475">
        <ele>573.56</ele>
        <time>2022-02-17T14:05:58Z</time>
      </trkpt>
      <trkpt lat="44.79258" lon="5.10496">
        <ele>576.45</ele>
        <time>2022-02-17T14:06:14Z</time>
      </trkpt>
      <trkpt lat="44.7926" lon="5.10516">
        <ele>578.85</ele>
        <time>2022-02-17T14:06:30Z</time>
      </trkpt>
      <trkpt lat="44.79261" lon="5.10536">
        <ele>579.81</ele>
        <time>2022-02-17T14:06:44Z</time>
      </trkpt>
      <trkpt lat="44.79258" lon="5.10558">
        <ele>581.25</ele>
        <time>2022-02-17T14:06:59Z</time>
      </trkpt>
      <trkpt lat="44.79253" lon="5.10571">
        <ele>581.73</ele>
        <time>2022-02-17T14:07:07Z</time>
      </trkpt>
      <trkpt lat="44.79245" lon="5.10589">
        <ele>580.29</ele>
        <time>2022-02-17T14:07:21Z</time>
      </trkpt>
      <trkpt lat="44.79238" lon="5.10596">
        <ele>580.29</ele>
        <time>2022-02-17T14:09:38Z</time>
      </trkpt>
      <trkpt lat="44.79233" lon="5.10596">
        <ele>576.93</ele>
        <time>2022-02-17T14:09:54Z</time>
      </trkpt>
      <trkpt lat="44.79229" lon="5.10595">
        <ele>574.04</ele>
        <time>2022-02-17T14:10:04Z</time>
      </trkpt>
      <trkpt lat="44.7922" lon="5.10594">
        <ele>570.68</ele>
        <time>2022-02-17T14:10:17Z</time>
      </trkpt>
      <trkpt lat="44.79213" lon="5.10596">
        <ele>567.32</ele>
        <time>2022-02-17T14:10:29Z</time>
      </trkpt>
      <trkpt lat="44.79204" lon="5.10596">
        <ele>564.91</ele>
        <time>2022-02-17T14:10:46Z</time>
      </trkpt>
      <trkpt lat="44.792" lon="5.10596">
        <ele>563.47</ele>
        <time>2022-02-17T14:11:10Z</time>
      </trkpt>
      <trkpt lat="44.79191" lon="5.10599">
        <ele>560.59</ele>
        <time>2022-02-17T14:11:25Z</time>
      </trkpt>
      <trkpt lat="44.79185" lon="5.10602">
        <ele>557.22</ele>
        <time>2022-02-17T14:11:39Z</time>
      </trkpt>
      <trkpt lat="44.79174" lon="5.10609">
        <ele>553.86</ele>
        <time>2022-02-17T14:11:51Z</time>
      </trkpt>
      <trkpt lat="44.79166" lon="5.10619">
        <ele>551.93</ele>
        <time>2022-02-17T14:12:05Z</time>
      </trkpt>
      <trkpt lat="44.79163" lon="5.10622">
        <ele>550.49</ele>
        <time>2022-02-17T14:12:09Z</time>
      </trkpt>
      <trkpt lat="44.79161" lon="5.10626">
        <ele>550.01</ele>
        <time>2022-02-17T14:12:21Z</time>
      </trkpt>
      <trkpt lat="44.79158" lon="5.10626">
        <ele>550.01</ele>
        <time>2022-02-17T14:12:42Z</time>
      </trkpt>
      <trkpt lat="44.79153" lon="5.10622">
        <ele>550.01</ele>
        <time>2022-02-17T14:12:52Z</time>
      </trkpt>
      <trkpt lat="44.79134" lon="5.10612">
        <ele>547.13</ele>
        <time>2022-02-17T14:13:11Z</time>
      </trkpt>
      <trkpt lat="44.79133" lon="5.10613">
        <ele>546.17</ele>
        <time>2022-02-17T14:13:23Z</time>
      </trkpt>
      <trkpt lat="44.79133" lon="5.10612">
        <ele>545.69</ele>
        <time>2022-02-17T14:13:25Z</time>
      </trkpt>
      <trkpt lat="44.79122" lon="5.10606">
        <ele>545.2</ele>
        <time>2022-02-17T14:13:46Z</time>
      </trkpt>
      <trkpt lat="44.79124" lon="5.10606">
        <ele>544.72</ele>
        <time>2022-02-17T14:14:14Z</time>
      </trkpt>
      <trkpt lat="44.79124" lon="5.10606">
        <ele>546.17</ele>
        <time>2022-02-17T14:14:23Z</time>
      </trkpt>
      <trkpt lat="44.79124" lon="5.10607">
        <ele>546.17</ele>
        <time>2022-02-17T14:14:44Z</time>
      </trkpt>
      <trkpt lat="44.79121" lon="5.10605">
        <ele>546.17</ele>
        <time>2022-02-17T14:14:53Z</time>
      </trkpt>
      <trkpt lat="44.79115" lon="5.10606">
        <ele>545.2</ele>
        <time>2022-02-17T14:14:58Z</time>
      </trkpt>
      <trkpt lat="44.79093" lon="5.10613">
        <ele>543.28</ele>
        <time>2022-02-17T14:15:18Z</time>
      </trkpt>
      <trkpt lat="44.7908" lon="5.10621">
        <ele>543.28</ele>
        <time>2022-02-17T14:15:32Z</time>
      </trkpt>
      <trkpt lat="44.79074" lon="5.10621">
        <ele>544.72</ele>
        <time>2022-02-17T14:15:39Z</time>
      </trkpt>
      <trkpt lat="44.7906" lon="5.10619">
        <ele>545.2</ele>
        <time>2022-02-17T14:15:54Z</time>
      </trkpt>
      <trkpt lat="44.79044" lon="5.10618">
        <ele>545.2</ele>
        <time>2022-02-17T14:16:09Z</time>
      </trkpt>
      <trkpt lat="44.79043" lon="5.10617">
        <ele>543.76</ele>
        <time>2022-02-17T14:16:25Z</time>
      </trkpt>
    </trkseg>
  </trk>
</gpx>